Portsmouth, Virginia - KPWR: 24-hour Summary Portsmouth Weather Records Service - Portsmouth, Virginia



LOCAL CLIMATOLOGICAL DATA: This Month's Data
[updated each morning between 7AM and 9AM]
Station: Portsmouth, Virginia - KPWR Latitude: 36° 48' 04" N Longitude: 76° 19' 37" W Elevation (ground): 13 ft. Time Zone: Eastern

BE SURE TO RELOAD/REFRESH THIS SCREEN FOR DAILY UPDATES BY RIGHT-CLICKING THE BACKGROUND The data in this frame and listed below are final adjusted site data for the time period.


-----------------------------------------------------------------------------------------------------------------------------------------------------------------------------------
TUESDAY			Temp	Hi	Low	Out	Dew	Wind	Wind	Wind	Hi	Hi	Wind	Heat	THW			Rain	Heat	Cool	In 	In	In 	In 	Wind	Wind	ISS 	Arc.
Date		Time	Out	Temp	Temp	Hum	Pt.	Speed	Dir	Run	Speed	Dir	Chill	Index	Index	Bar  	Rain	Rate	D-D 	D-D 	Temp	Hum	Dew	Heat	Samp	Tx 	Recept	Int.
01/01/19	1:00 a	67.0	67.0	66.2	97	66.1	12.0	SSW	12.00	27.0	SW	63.8	68.7	65.5	29.918	0.00	0.00	0.000	0.083	81.4	41	55.4	80.6	1403	1	100.0	60
01/01/19	2:00 a	67.5	67.5	67.0	96	66.3	11.0	SW	11.00	23.0	WSW	64.9	69.3	66.7	29.922	0.00	0.00	0.000	0.104	81.2	42	55.9	80.5	1405	1	100.0	60
01/01/19	3:00 a	67.5	67.7	67.5	95	66.0	11.0	SW	11.00	24.0	WSW	64.9	69.3	66.7	29.898	0.00	0.00	0.000	0.104	81.0	42	55.7	80.2	1405	1	100.0	60
01/01/19	4:00 a	67.9	67.9	67.4	94	66.1	12.0	SW	12.00	25.0	WSW	64.8	69.7	66.6	29.882	0.00	0.00	0.000	0.121	80.9	43	56.3	80.3	1405	1	100.0	60
01/01/19	5:00 a	67.3	67.9	67.3	93	65.2	13.0	SW	13.00	25.0	SW	63.6	68.9	65.2	29.867	0.00	0.00	0.000	0.096	80.9	43	56.3	80.3	1405	1	100.0	60
01/01/19	6:00 a	67.4	67.5	67.1	93	65.3	13.0	SW	13.00	31.0	SW	63.7	69.1	65.4	29.848	0.00	0.00	0.000	0.100	80.8	44	56.9	80.3	1405	1	100.0	60
01/01/19	7:00 a	67.6	67.6	67.3	93	65.5	13.0	SW	13.00	27.0	SW	64.0	69.3	65.7	29.862	0.00	0.00	0.000	0.108	80.7	44	56.8	80.2	1405	1	100.0	60
01/01/19	8:00 a	68.1	68.1	67.6	92	65.7	11.0	SW	11.00	24.0	SW	65.5	69.9	67.3	29.887	0.00	0.00	0.000	0.129	80.8	44	56.9	80.3	1405	1	100.0	60
01/01/19	9:00 a	69.4	69.4	68.1	89	66.0	11.0	SW	11.00	28.0	SW	66.8	71.3	68.7	29.921	0.00	0.00	0.000	0.183	81.2	44	57.2	80.7	1405	1	100.0	60
01/01/19	10:00 a	70.5	70.5	69.4	83	65.1	12.0	WSW	12.00	28.0	WSW	67.4	72.0	68.9	29.928	0.00	0.00	0.000	0.229	82.1	43	57.4	81.8	1405	1	100.0	60
01/01/19	11:00 a	71.8	71.8	70.5	71	61.9	13.0	W	13.00	30.0	WNW	68.4	72.5	69.1	29.937	0.00	0.00	0.000	0.283	83.3	43	58.5	83.7	1405	1	100.0	60
01/01/19	12:00 p	70.8	71.8	70.6	63	57.6	13.0	WNW	13.00	28.0	W	67.3	70.5	67.0	29.928	0.00	0.00	0.000	0.242	84.1	42	58.5	84.7	1405	1	100.0	60
01/01/19	1:00 p	---	70.8	70.4	---	---	13.0	W	13.00	23.0	W	---	---	---	29.948	0.00	0.00	---	---	84.0	40	57.1	84.3	581	1	42.5	60
01/01/19	2:00 p	66.8	68.3	66.7	64	54.2	12.0	W	12.00	29.0	W	63.6	66.7	63.5	29.964	0.00	0.00	0.000	0.075	83.0	40	56.2	82.7	1234	1	90.2	60
01/01/19	3:00 p	67.2	67.2	66.7	62	53.7	11.0	W	11.00	22.0	W	64.6	66.9	64.3	29.996	0.00	0.00	0.000	0.092	83.1	40	56.3	82.9	1405	1	100.0	60
01/01/19	4:00 p	66.2	67.2	66.2	64	53.7	10.0	W	10.00	21.0	WSW	64.2	65.9	63.9	30.021	0.00	0.00	0.000	0.050	82.5	39	55.0	81.9	1405	1	100.0	60
01/01/19	5:00 p	64.6	66.2	64.6	68	53.8	5.0	W	5.00	12.0	W	64.6	64.4	64.4	30.042	0.00	0.00	0.017	0.000	82.0	39	54.6	81.2	1405	1	100.0	60
01/01/19	6:00 p	61.0	64.6	61.0	66	49.6	5.0	WNW	5.00	18.0	ENE	61.0	60.2	60.2	30.079	0.00	0.00	0.167	0.000	81.2	39	53.9	80.2	1405	1	100.0	60
01/01/19	7:00 p	57.3	61.0	57.3	68	46.8	11.0	NE	11.00	20.0	NE	53.2	56.4	52.3	30.121	0.00	0.00	0.321	0.000	81.0	37	52.3	79.7	1405	1	100.0	60
01/01/19	8:00 p	54.8	57.3	54.7	72	45.9	12.0	NE	12.00	24.0	NE	49.8	54.1	49.1	30.142	0.00	0.00	0.425	0.000	81.1	37	52.4	79.8	1405	1	100.0	60
01/01/19	9:00 p	53.5	54.7	53.5	74	45.4	11.0	NE	11.00	20.0	NE	48.8	53.0	48.3	30.157	0.00	0.00	0.479	0.000	81.5	38	53.4	80.4	1405	1	100.0	60
01/01/19	10:00 p	52.5	53.5	52.5	73	44.1	7.0	NE	7.00	16.0	N	50.2	52.0	49.7	30.163	0.00	0.00	0.521	0.000	82.2	37	53.3	81.2	1405	1	100.0	60
01/01/19	11:00 p	51.3	52.5	51.3	75	43.6	10.0	NE	10.00	18.0	NE	46.8	51.0	46.5	30.173	0.00	0.00	0.571	0.000	82.1	37	53.2	81.1	1405	1	100.0	60
01/02/19	12:00 a	50.7	51.3	50.7	71	41.6	11.0	NE	11.00	22.0	NE	45.6	50.3	45.2	30.188	0.00	0.00	0.596	0.000	81.5	37	52.7	80.3	1405	1	100.0	60
WEDNESDAY		Temp	Hi	Low	Out	Dew	Wind	Wind	Wind	Hi	Hi	Wind	Heat	THW			Rain	Heat	Cool	In 	In	In 	In 	Wind	Wind	ISS 	Arc.
Date		Time	Out	Temp	Temp	Hum	Pt.	Speed	Dir	Run	Speed	Dir	Chill	Index	Index	Bar  	Rain	Rate	D-D 	D-D 	Temp	Hum	Dew	Heat	Samp	Tx 	Recept	Int.
01/02/19	1:00 a	49.9	50.7	49.9	73	41.6	10.0	NE	10.00	18.0	NE	45.2	49.6	44.9	30.189	0.00	0.00	0.629	0.000	80.0	37	51.4	78.7	1404	1	100.0	60
01/02/19	2:00 a	49.0	49.9	49.0	78	42.4	6.0	NE	6.00	15.0	NE	46.5	48.8	46.3	30.209	0.00	0.00	0.667	0.000	78.8	38	51.0	77.8	1404	1	100.0	60
01/02/19	3:00 a	48.1	49.0	48.1	81	42.5	6.0	NE	6.00	14.0	NE	45.4	48.0	45.3	30.211	0.00	0.00	0.704	0.000	78.7	37	50.2	77.6	1405	1	100.0	60
01/02/19	4:00 a	47.6	48.1	47.6	81	42.1	5.0	NE	5.00	13.0	NNE	45.4	47.5	45.3	30.206	0.00	0.00	0.725	0.000	77.9	37	49.5	76.8	1405	1	100.0	60
01/02/19	5:00 a	46.8	47.6	46.8	82	41.6	5.0	NE	5.00	11.0	NE	44.5	46.7	44.4	30.221	0.00	0.00	0.758	0.000	78.1	37	49.7	77.0	1405	1	100.0	60
01/02/19	6:00 a	47.1	47.2	46.8	83	42.2	6.0	NE	6.00	15.0	ENE	44.2	47.0	44.1	30.228	0.00	0.00	0.746	0.000	78.4	37	50.0	77.3	1405	1	100.0	60
01/02/19	7:00 a	46.8	47.1	46.8	85	42.5	6.0	NE	6.00	15.0	NE	43.9	46.8	43.9	30.262	0.00	0.00	0.758	0.000	78.7	36	49.5	77.5	1405	1	100.0	60
01/02/19	8:00 a	47.5	47.6	46.8	80	41.6	10.0	ENE	10.00	16.0	NNE	42.4	47.4	42.3	30.289	0.00	0.00	0.729	0.000	79.0	36	49.8	77.9	1405	1	100.0	60
01/02/19	9:00 a	48.2	48.2	47.5	76	41.0	11.0	ENE	11.00	20.0	E	42.7	47.9	42.4	30.309	0.00	0.00	0.700	0.000	81.4	35	51.1	80.0	1405	1	100.0	60
01/02/19	10:00 a	49.1	49.2	48.1	74	41.2	10.0	ENE	10.00	18.0	NE	44.2	48.8	43.9	30.308	0.00	0.00	0.663	0.000	80.6	34	49.6	79.0	1405	1	100.0	60
01/02/19	11:00 a	49.9	49.9	49.2	71	40.9	7.0	E	7.00	16.0	ENE	47.1	49.5	46.7	30.304	0.00	0.00	0.629	0.000	79.6	35	49.5	78.2	1404	1	100.0	60
01/02/19	12:00 p	50.4	50.5	49.9	69	40.6	7.0	ENE	7.00	16.0	ENE	47.7	49.9	47.2	30.258	0.00	0.00	0.608	0.000	79.4	36	50.1	78.2	1406	1	100.0	60
01/02/19	1:00 p	51.4	51.4	50.4	67	40.8	11.0	ENE	11.00	16.0	ENE	46.4	50.7	45.7	30.251	0.00	0.00	0.567	0.000	79.5	36	50.2	78.2	1404	1	100.0	60
01/02/19	2:00 p	52.3	52.3	51.4	64	40.5	6.0	ENE	6.00	15.0	ENE	50.4	51.4	49.5	30.207	0.00	0.00	0.529	0.000	80.2	36	50.8	78.8	1405	1	100.0	60
01/02/19	3:00 p	52.4	52.4	52.0	65	41.0	6.0	ENE	6.00	14.0	ENE	50.5	51.6	49.7	30.181	0.00	0.00	0.525	0.000	79.4	36	50.1	78.2	1405	1	100.0	60
01/02/19	4:00 p	52.0	52.4	52.0	64	40.2	5.0	ENE	5.00	13.0	ENE	50.6	51.2	49.8	30.199	0.00	0.00	0.542	0.000	79.9	36	50.6	78.5	1405	1	100.0	60
01/02/19	5:00 p	50.8	52.0	50.8	72	42.1	5.0	ENE	5.00	13.0	ENE	49.2	50.4	48.8	30.198	0.00	0.00	0.592	0.000	79.7	36	50.4	78.4	1405	1	100.0	60
01/02/19	6:00 p	49.5	50.8	49.5	80	43.6	5.0	ENE	5.00	11.0	E	47.6	49.5	47.6	30.160	0.00	0.00	0.646	0.000	79.2	36	49.9	78.0	1405	1	100.0	60
01/02/19	7:00 p	49.0	49.5	49.0	83	44.1	4.0	SE	4.00	10.0	SSE	47.7	49.0	47.7	30.146	0.00	0.00	0.667	0.000	79.8	35	49.7	78.4	1405	1	100.0	60
01/02/19	8:00 p	49.1	49.1	49.0	84	44.5	5.0	SSE	5.00	11.0	SSE	47.1	49.2	47.2	30.124	0.00	0.00	0.663	0.000	79.6	35	49.5	78.2	1405	1	100.0	60
01/02/19	9:00 p	49.6	49.6	49.0	84	45.0	4.0	S	4.00	10.0	S	48.4	49.7	48.5	30.116	0.00	0.00	0.642	0.000	79.5	35	49.4	78.2	1405	1	100.0	60
01/02/19	10:00 p	50.3	50.3	49.6	84	45.6	4.0	S	4.00	7.0	SSE	49.2	50.3	49.2	30.094	0.00	0.00	0.613	0.000	79.5	35	49.4	78.2	1405	1	100.0	60
01/02/19	11:00 p	50.0	50.5	50.0	90	47.2	4.0	W	4.00	7.0	WNW	48.9	50.3	49.2	30.075	0.01	0.00	0.625	0.000	79.6	35	49.5	78.2	1405	1	100.0	60
01/03/19	12:00 a	48.3	50.0	48.3	94	46.7	4.0	NW	4.00	10.0	WNW	46.9	48.7	47.3	30.044	0.02	0.05	0.696	0.000	79.8	35	49.7	78.4	1404	1	100.0	60
THURSDAY		Temp	Hi	Low	Out	Dew	Wind	Wind	Wind	Hi	Hi	Wind	Heat	THW			Rain	Heat	Cool	In 	In	In 	In 	Wind	Wind	ISS 	Arc.
Date		Time	Out	Temp	Temp	Hum	Pt.	Speed	Dir	Run	Speed	Dir	Chill	Index	Index	Bar  	Rain	Rate	D-D 	D-D 	Temp	Hum	Dew	Heat	Samp	Tx 	Recept	Int.
01/03/19	1:00 a	47.5	48.3	47.5	96	46.4	0.0	WNW	0.00	6.0	NW	47.5	47.9	47.9	30.012	0.03	0.05	0.729	0.000	78.6	35	48.7	77.4	1403	1	100.0	60
01/03/19	2:00 a	47.1	47.5	47.0	97	46.3	4.0	W	4.00	11.0	WNW	45.5	47.5	45.9	29.999	0.03	0.07	0.746	0.000	78.7	35	48.7	77.5	1405	1	100.0	60
01/03/19	3:00 a	46.5	47.1	46.5	97	45.7	4.0	WNW	4.00	11.0	WNW	44.8	46.9	45.2	30.000	0.03	0.08	0.771	0.000	78.5	35	48.6	77.3	1405	1	100.0	60
01/03/19	4:00 a	46.7	46.7	46.5	97	45.9	4.0	SW	4.00	7.0	SW	45.0	47.1	45.4	29.967	0.01	0.04	0.762	0.000	78.5	35	48.6	77.3	1405	1	100.0	60
01/03/19	5:00 a	47.0	47.0	46.7	98	46.5	4.0	SW	4.00	11.0	SSW	45.4	47.4	45.8	29.929	0.02	0.00	0.750	0.000	78.6	35	48.7	77.4	1405	1	100.0	60
01/03/19	6:00 a	48.1	48.1	46.9	99	47.8	5.0	SW	5.00	13.0	S	46.0	48.7	46.6	29.942	0.05	0.15	0.704	0.000	79.0	36	49.8	77.9	1405	1	100.0	60
01/03/19	7:00 a	49.4	49.4	48.1	99	49.1	5.0	SW	5.00	15.0	WSW	47.5	50.0	48.1	29.957	0.04	0.15	0.650	0.000	79.2	35	49.2	77.9	1405	1	100.0	60
01/03/19	8:00 a	50.7	50.7	49.4	100	50.7	5.0	W	5.00	13.0	WSW	49.0	51.3	49.6	29.979	0.01	0.00	0.596	0.000	79.5	36	50.2	78.2	1405	1	100.0	60
01/03/19	9:00 a	51.1	51.1	50.7	100	51.1	5.0	W	5.00	12.0	WSW	49.5	51.7	50.1	29.987	0.01	0.00	0.579	0.000	80.9	37	52.2	79.6	1405	1	100.0	60
01/03/19	10:00 a	51.4	51.4	51.1	99	51.1	5.0	W	5.00	13.0	W	49.9	51.9	50.4	29.997	0.01	0.00	0.567	0.000	80.3	37	51.7	79.0	1404	1	100.0	60
01/03/19	11:00 a	51.7	51.8	51.4	100	51.7	5.0	W	5.00	12.0	WSW	50.2	52.2	50.7	29.992	0.02	0.04	0.554	0.000	79.3	37	50.8	78.2	1405	1	100.0	60
01/03/19	12:00 p	51.9	52.0	51.7	100	51.9	5.0	WSW	5.00	12.0	WSW	50.5	52.4	51.0	29.969	0.02	0.04	0.546	0.000	79.4	37	50.9	78.3	1405	1	100.0	60
01/03/19	1:00 p	52.4	52.4	51.9	100	52.4	5.0	W	5.00	13.0	WNW	51.0	52.9	51.5	29.971	0.01	0.00	0.525	0.000	78.8	37	50.3	77.7	1405	1	100.0	60
01/03/19	2:00 p	52.0	52.4	52.0	99	51.7	5.0	NNW	5.00	11.0	NNW	50.6	52.5	51.1	29.973	0.00	0.00	0.542	0.000	79.2	37	50.7	78.1	1405	1	100.0	60
01/03/19	3:00 p	50.9	52.0	50.9	99	50.6	5.0	NE	5.00	12.0	ENE	49.3	51.5	49.9	29.987	0.00	0.00	0.587	0.000	78.6	37	50.1	77.5	1405	1	100.0	60
01/03/19	4:00 p	50.1	50.9	50.1	97	49.3	5.0	NE	5.00	10.0	ENE	48.3	50.7	48.9	30.013	0.00	0.00	0.621	0.000	78.6	37	50.1	77.5	1405	1	100.0	60
01/03/19	5:00 p	48.8	50.1	48.8	90	46.0	6.0	NE	6.00	13.0	N	46.3	49.1	46.6	30.003	0.00	0.00	0.675	0.000	78.9	37	50.4	77.9	1405	1	100.0	60
01/03/19	6:00 p	49.1	49.1	48.8	87	45.4	6.0	ENE	6.00	15.0	ENE	46.6	49.3	46.8	30.026	0.00	0.00	0.663	0.000	79.2	37	50.7	78.1	1405	1	100.0	60
01/03/19	7:00 p	48.3	49.2	48.3	86	44.3	6.0	ENE	6.00	15.0	ENE	45.7	48.4	45.8	30.044	0.00	0.00	0.696	0.000	79.6	36	50.3	78.3	1405	1	100.0	60
01/03/19	8:00 p	47.7	48.3	47.6	88	44.3	4.0	ENE	4.00	10.0	ENE	46.2	47.8	46.3	30.053	0.00	0.00	0.721	0.000	79.6	36	50.3	78.3	1405	1	100.0	60
01/03/19	9:00 p	47.6	47.7	47.6	88	44.2	4.0	ENE	4.00	7.0	ENE	46.1	47.7	46.2	30.058	0.00	0.00	0.725	0.000	79.6	36	50.3	78.3	1405	1	100.0	60
01/03/19	10:00 p	46.4	47.6	46.4	90	43.6	0.0	ENE	0.00	4.0	ENE	46.4	46.5	46.5	30.058	0.00	0.00	0.775	0.000	79.5	36	50.2	78.2	1404	1	100.0	60
01/03/19	11:00 p	44.5	46.4	44.5	91	42.0	0.0	ENE	0.00	4.0	ENE	44.5	44.6	44.6	30.063	0.00	0.00	0.854	0.000	79.4	36	50.1	78.2	1405	1	100.0	60
01/04/19	12:00 a	44.1	44.5	44.0	94	42.5	0.0	ENE	0.00	5.0	ENE	44.1	44.3	44.3	30.055	0.00	0.00	0.871	0.000	78.7	36	49.5	77.5	1405	1	100.0	60
FRIDAY			Temp	Hi	Low	Out	Dew	Wind	Wind	Wind	Hi	Hi	Wind	Heat	THW			Rain	Heat	Cool	In 	In	In 	In 	Wind	Wind	ISS 	Arc.
Date		Time	Out	Temp	Temp	Hum	Pt.	Speed	Dir	Run	Speed	Dir	Chill	Index	Index	Bar  	Rain	Rate	D-D 	D-D 	Temp	Hum	Dew	Heat	Samp	Tx 	Recept	Int.
01/04/19	1:00 a	44.7	44.7	44.1	95	43.4	0.0	ENE	0.00	4.0	ENE	44.7	44.9	44.9	30.056	0.00	0.00	0.846	0.000	78.4	36	49.2	77.2	1404	1	100.0	60
01/04/19	2:00 a	45.2	45.2	44.7	95	43.9	0.0	ENE	0.00	6.0	ENE	45.2	45.4	45.4	30.067	0.00	0.00	0.825	0.000	77.9	36	48.8	76.7	1405	1	100.0	60
01/04/19	3:00 a	45.0	45.3	45.0	95	43.7	0.0	ENE	0.00	6.0	ENE	45.0	45.2	45.2	30.045	0.00	0.00	0.833	0.000	77.7	36	48.6	76.6	1405	1	100.0	60
01/04/19	4:00 a	44.0	45.0	44.0	94	42.4	0.0	ENE	0.00	5.0	ENE	44.0	44.2	44.2	30.028	0.00	0.00	0.875	0.000	77.6	36	48.5	76.5	1405	1	100.0	60
01/04/19	5:00 a	43.3	44.0	43.3	95	42.0	0.0	ENE	0.00	4.0	ENE	43.3	43.4	43.4	30.035	0.00	0.00	0.904	0.000	77.6	36	48.5	76.5	1405	1	100.0	60
01/04/19	6:00 a	42.9	43.3	42.9	95	41.6	0.0	ENE	0.00	4.0	ENE	42.9	43.0	43.0	30.036	0.00	0.00	0.921	0.000	77.6	36	48.5	76.5	1405	1	100.0	60
01/04/19	7:00 a	43.3	43.3	42.9	96	42.2	0.0	ESE	0.00	4.0	SSE	43.3	43.5	43.5	30.061	0.00	0.00	0.904	0.000	77.6	36	48.5	76.5	1405	1	100.0	60
01/04/19	8:00 a	45.1	45.1	43.3	98	44.6	0.0	SSE	0.00	5.0	SSE	45.1	45.4	45.4	30.065	0.01	0.00	0.829	0.000	78.0	35	48.1	76.7	1403	1	100.0	60
01/04/19	9:00 a	47.1	47.1	45.1	98	46.6	5.0	SSE	5.00	12.0	SSE	44.8	47.5	45.2	30.056	0.00	0.00	0.746	0.000	78.3	35	48.4	77.0	1405	1	100.0	60
01/04/19	10:00 a	48.3	48.3	47.1	97	47.5	5.0	SE	5.00	14.0	SSE	46.2	48.8	46.7	30.060	0.00	0.00	0.696	0.000	78.2	35	48.3	76.9	1405	1	100.0	60
01/04/19	11:00 a	49.8	49.8	48.2	93	47.9	6.0	SSE	6.00	13.0	SSE	47.5	50.2	47.9	30.021	0.00	0.00	0.633	0.000	78.3	35	48.4	77.0	1405	1	100.0	60
01/04/19	12:00 p	51.5	51.5	49.8	90	48.7	6.0	SSE	6.00	13.0	SE	49.5	51.7	49.7	29.984	0.00	0.00	0.563	0.000	78.6	35	48.7	77.4	1405	1	100.0	60
01/04/19	1:00 p	52.8	52.8	51.5	91	50.2	6.0	SSE	6.00	14.0	S	51.0	53.0	51.2	29.966	0.00	0.00	0.508	0.000	79.0	35	49.0	77.8	1405	1	100.0	60
01/04/19	2:00 p	52.8	53.2	52.8	92	50.5	4.0	S	4.00	11.0	SSW	52.1	53.0	52.3	29.940	0.00	0.00	0.508	0.000	79.0	35	49.0	77.8	1405	1	100.0	60
01/04/19	3:00 p	51.3	52.8	51.3	95	49.9	4.0	ENE	4.00	6.0	ENE	50.4	51.7	50.8	29.922	0.03	0.04	0.571	0.000	79.2	35	49.2	77.9	1405	1	100.0	60
01/04/19	4:00 p	51.0	51.3	50.9	96	49.9	4.0	SE	4.00	9.0	SSE	50.0	51.4	50.4	29.879	0.03	0.04	0.583	0.000	78.8	36	49.6	77.7	1405	1	100.0	60
01/04/19	5:00 p	50.5	51.0	50.5	97	49.7	10.0	SSE	10.00	18.0	SE	45.9	51.0	46.4	29.847	0.02	0.05	0.604	0.000	78.3	36	49.1	77.1	1405	1	100.0	60
01/04/19	6:00 p	51.0	51.0	50.4	98	50.5	6.0	ENE	6.00	15.0	SSE	48.9	51.5	49.4	29.818	0.00	0.00	0.583	0.000	78.4	36	49.2	77.2	1405	1	100.0	60
01/04/19	7:00 p	51.2	51.2	51.0	99	50.9	4.0	SSE	4.00	7.0	SSE	50.2	51.7	50.7	29.822	0.03	0.00	0.575	0.000	79.2	36	49.9	78.0	1405	1	100.0	60
01/04/19	8:00 p	51.5	51.5	51.2	99	51.2	0.0	SSE	0.00	5.0	SSE	51.5	52.0	52.0	29.766	0.01	0.04	0.563	0.000	79.4	37	50.9	78.3	1404	1	100.0	60
01/04/19	9:00 p	52.0	52.0	51.5	99	51.7	6.0	SSE	6.00	14.0	SSE	50.0	52.5	50.5	29.712	0.01	0.00	0.542	0.000	79.5	37	50.9	78.3	1405	1	100.0	60
01/04/19	10:00 p	56.0	56.0	51.9	100	56.0	13.0	SSE	13.00	23.0	SSE	50.7	56.4	51.1	29.634	0.00	0.00	0.375	0.000	79.5	37	50.9	78.3	1405	1	100.0	60
01/04/19	11:00 p	59.3	59.3	56.1	100	59.3	14.0	SSE	14.00	24.0	SSE	54.1	59.8	54.6	29.600	0.01	0.00	0.238	0.000	79.7	38	51.8	78.6	1405	1	100.0	60
01/05/19	12:00 a	59.8	59.8	59.3	100	59.8	10.0	SSE	10.00	15.0	S	56.8	60.4	57.4	29.571	0.00	0.00	0.217	0.000	79.2	38	51.4	78.2	1405	1	100.0	60
SATURDAY		Temp	Hi	Low	Out	Dew	Wind	Wind	Wind	Hi	Hi	Wind	Heat	THW			Rain	Heat	Cool	In 	In	In 	In 	Wind	Wind	ISS 	Arc.
Date		Time	Out	Temp	Temp	Hum	Pt.	Speed	Dir	Run	Speed	Dir	Chill	Index	Index	Bar  	Rain	Rate	D-D 	D-D 	Temp	Hum	Dew	Heat	Samp	Tx 	Recept	Int.
01/05/19	1:00 a	59.9	59.9	59.6	100	59.9	7.0	S	7.00	14.0	SSE	59.1	60.5	59.7	29.570	0.00	0.00	0.212	0.000	78.8	39	51.7	77.9	1404	1	100.0	60
01/05/19	2:00 a	61.4	61.4	59.9	100	61.4	7.0	S	7.00	18.0	S	60.9	62.1	61.6	29.557	0.01	0.00	0.150	0.000	78.5	40	52.2	77.6	1405	1	100.0	60
01/05/19	3:00 a	61.3	61.7	61.3	100	61.3	7.0	SSW	7.00	19.0	S	60.8	62.0	61.5	29.530	0.00	0.00	0.154	0.000	78.3	40	52.0	77.4	1405	1	100.0	60
01/05/19	4:00 a	60.2	61.3	60.2	100	60.2	6.0	SSW	6.00	16.0	WSW	59.8	60.8	60.4	29.508	0.00	0.00	0.200	0.000	78.2	40	51.9	77.3	1405	1	100.0	60
01/05/19	5:00 a	58.1	60.2	58.0	99	57.8	7.0	SW	7.00	15.0	SW	56.9	58.5	57.3	29.488	0.00	0.00	0.288	0.000	77.9	40	51.6	77.0	1405	1	100.0	60
01/05/19	6:00 a	56.5	58.1	56.5	99	56.2	7.0	SW	7.00	23.0	SW	55.0	56.9	55.4	29.475	0.00	0.00	0.354	0.000	77.6	41	52.0	76.8	1405	1	100.0	60
01/05/19	7:00 a	55.3	56.5	55.3	99	55.0	7.0	SW	7.00	17.0	WSW	53.6	55.7	54.0	29.468	0.00	0.00	0.404	0.000	78.7	40	52.3	77.9	1404	1	100.0	60
01/05/19	8:00 a	52.1	55.3	52.1	93	50.1	10.0	SW	10.00	26.0	SW	47.7	52.4	48.0	29.525	0.00	0.00	0.538	0.000	79.5	40	53.1	78.6	1405	1	100.0	60
01/05/19	9:00 a	51.5	52.1	51.4	90	48.7	11.0	SW	11.00	25.0	W	46.5	51.7	46.7	29.556	0.00	0.00	0.563	0.000	79.0	40	52.6	78.2	1405	1	100.0	60
01/05/19	10:00 a	52.7	52.7	51.5	86	48.6	10.0	SW	10.00	23.0	SW	48.4	52.7	48.4	29.560	0.00	0.00	0.512	0.000	80.4	38	52.5	79.2	1405	1	100.0	60
01/05/19	11:00 a	54.8	54.8	52.7	80	48.7	12.0	WSW	12.00	30.0	W	49.8	54.5	49.5	29.560	0.00	0.00	0.425	0.000	80.8	38	52.8	79.6	1405	1	100.0	60
01/05/19	12:00 p	55.9	55.9	54.8	74	47.7	13.0	WSW	13.00	30.0	W	50.6	55.3	50.0	29.556	0.00	0.00	0.379	0.000	81.9	38	53.8	80.9	1405	1	100.0	60
01/05/19	1:00 p	57.7	57.7	55.9	71	48.4	13.0	W	13.00	30.0	WSW	52.7	57.0	52.0	29.561	0.00	0.00	0.304	0.000	81.4	38	53.4	80.3	1405	1	100.0	60
01/05/19	2:00 p	58.8	58.8	57.1	69	48.6	12.0	WSW	12.00	28.0	SW	54.4	58.0	53.6	29.588	0.00	0.00	0.258	0.000	82.8	37	53.9	81.9	1405	1	100.0	60
01/05/19	3:00 p	59.0	59.0	58.5	67	48.1	13.0	W	13.00	26.0	W	54.1	58.1	53.2	29.614	0.00	0.00	0.250	0.000	83.2	37	54.2	82.5	1405	1	100.0	60
01/05/19	4:00 p	57.8	59.1	57.8	67	46.9	13.0	W	13.00	26.0	W	52.8	56.9	51.9	29.667	0.00	0.00	0.300	0.000	82.0	37	53.2	80.9	1405	1	100.0	60
01/05/19	5:00 p	56.8	57.8	56.8	69	46.7	10.0	WNW	10.00	25.0	WSW	53.3	56.0	52.5	29.705	0.00	0.00	0.342	0.000	82.0	37	53.2	80.9	1405	1	100.0	60
01/05/19	6:00 p	55.5	56.9	55.5	68	45.1	7.0	WNW	7.00	16.0	NW	53.8	54.6	52.9	29.744	0.00	0.00	0.396	0.000	81.1	38	53.1	79.9	1405	1	100.0	60
01/05/19	7:00 p	53.7	55.5	53.7	71	44.5	6.0	W	6.00	14.0	WSW	52.0	53.0	51.3	29.778	0.00	0.00	0.471	0.000	80.2	38	52.3	79.0	1405	1	100.0	60
01/05/19	8:00 p	52.3	53.7	52.3	73	43.9	6.0	W	6.00	14.0	WSW	50.4	51.8	49.9	29.798	0.00	0.00	0.529	0.000	79.7	38	51.8	78.6	1404	1	100.0	60
01/05/19	9:00 p	51.4	52.3	51.4	74	43.4	7.0	W	7.00	16.0	WSW	48.9	51.0	48.5	29.826	0.00	0.00	0.567	0.000	79.5	38	51.7	78.4	1405	1	100.0	60
01/05/19	10:00 p	51.4	51.4	51.3	71	42.3	7.0	W	7.00	17.0	W	48.9	50.9	48.4	29.849	0.00	0.00	0.567	0.000	79.6	38	51.8	78.5	1405	1	100.0	60
01/05/19	11:00 p	50.6	51.4	50.5	72	41.9	6.0	W	6.00	16.0	WSW	48.4	50.2	48.0	29.873	0.00	0.00	0.600	0.000	80.6	37	51.9	79.3	1405	1	100.0	60
01/06/19	12:00 a	47.9	50.5	47.9	75	40.4	4.0	WSW	4.00	7.0	W	46.5	47.6	46.2	29.886	0.00	0.00	0.712	0.000	80.4	37	51.7	79.1	1406	1	100.0	60
SUNDAY			Temp	Hi	Low	Out	Dew	Wind	Wind	Wind	Hi	Hi	Wind	Heat	THW			Rain	Heat	Cool	In 	In	In 	In 	Wind	Wind	ISS 	Arc.
Date		Time	Out	Temp	Temp	Hum	Pt.	Speed	Dir	Run	Speed	Dir	Chill	Index	Index	Bar  	Rain	Rate	D-D 	D-D 	Temp	Hum	Dew	Heat	Samp	Tx 	Recept	Int.
01/06/19	1:00 a	45.5	47.9	45.5	79	39.4	4.0	W	4.00	6.0	W	43.7	45.3	43.5	29.904	0.00	0.00	0.813	0.000	78.8	37	50.3	77.7	1403	1	100.0	60
01/06/19	2:00 a	43.4	45.5	43.4	83	38.6	4.0	W	4.00	5.0	W	41.2	43.2	41.0	29.933	0.00	0.00	0.900	0.000	77.4	38	49.8	76.4	1405	1	100.0	60
01/06/19	3:00 a	41.6	43.4	41.6	86	37.7	0.0	W	0.00	5.0	W	41.6	41.4	41.4	29.940	0.00	0.00	0.975	0.000	77.3	37	49.0	76.3	1405	1	100.0	60
01/06/19	4:00 a	40.3	41.6	40.3	88	37.0	0.0	W	0.00	6.0	WSW	40.3	40.2	40.2	29.953	0.00	0.00	1.029	0.000	76.9	37	48.6	76.0	1405	1	100.0	60
01/06/19	5:00 a	39.7	40.3	39.7	90	37.0	0.0	WSW	0.00	6.0	WSW	39.7	39.6	39.6	29.961	0.00	0.00	1.054	0.000	76.5	37	48.3	75.5	1405	1	100.0	60
01/06/19	6:00 a	39.2	39.7	39.2	91	36.8	4.0	WSW	4.00	5.0	WSW	36.4	39.1	36.3	29.964	0.00	0.00	1.075	0.000	76.3	36	47.4	75.2	1404	1	100.0	60
01/06/19	7:00 a	40.4	40.4	39.2	92	38.3	4.0	WSW	4.00	12.0	WSW	37.8	40.4	37.8	29.977	0.00	0.00	1.025	0.000	76.8	36	47.8	75.8	1405	1	100.0	60
01/06/19	8:00 a	41.3	41.3	40.4	89	38.3	4.0	W	4.00	7.0	WSW	38.8	41.2	38.7	30.008	0.00	0.00	0.988	0.000	77.9	35	48.0	76.6	1405	1	100.0	60
01/06/19	9:00 a	46.0	46.0	41.3	84	41.4	5.0	W	5.00	17.0	WNW	43.5	46.0	43.5	30.016	0.01	0.00	0.792	0.000	80.8	33	49.0	79.1	1404	1	100.0	60
01/06/19	10:00 a	52.5	52.5	46.0	71	43.4	7.0	W	7.00	17.0	WSW	50.2	51.9	49.6	30.030	0.00	0.00	0.521	0.000	81.4	33	49.5	79.8	1405	1	100.0	60
01/06/19	11:00 a	55.9	55.9	52.5	65	44.3	10.0	W	10.00	17.0	SW	52.2	54.9	51.2	30.033	0.00	0.00	0.379	0.000	81.7	33	49.8	80.1	1405	1	100.0	60
01/06/19	12:00 p	59.8	59.8	55.9	56	44.1	11.0	WNW	11.00	19.0	W	56.1	58.3	54.6	30.014	0.00	0.00	0.217	0.000	82.9	33	50.8	81.4	1405	1	100.0	60
01/06/19	1:00 p	62.2	62.3	59.7	54	45.3	11.0	WNW	11.00	18.0	W	58.8	60.6	57.2	30.026	0.00	0.00	0.117	0.000	84.3	32	51.2	83.0	1404	1	100.0	60
01/06/19	2:00 p	63.2	63.2	62.3	52	45.3	11.0	NW	11.00	20.0	NW	60.0	61.5	58.3	30.026	0.00	0.00	0.075	0.000	84.6	33	52.3	83.4	1405	1	100.0	60
01/06/19	3:00 p	61.9	63.2	61.9	52	44.1	10.0	NW	10.00	17.0	NNW	59.2	60.2	57.5	30.040	0.00	0.00	0.129	0.000	84.8	33	52.5	83.6	1405	1	100.0	60
01/06/19	4:00 p	61.2	61.9	61.2	54	44.4	7.0	NW	7.00	15.0	NW	60.7	59.5	59.0	30.067	0.00	0.00	0.158	0.000	84.0	34	52.6	83.1	1405	1	100.0	60
01/06/19	5:00 p	55.3	61.1	55.3	65	43.7	6.0	ENE	6.00	14.0	NE	54.0	54.3	53.0	30.093	0.00	0.00	0.404	0.000	83.5	34	52.2	82.4	1405	1	100.0	60
01/06/19	6:00 p	52.7	55.3	52.7	69	42.8	5.0	NE	5.00	11.0	NE	51.4	52.0	50.7	30.142	0.00	0.00	0.512	0.000	82.2	35	51.8	80.9	1404	1	100.0	60
01/06/19	7:00 p	50.3	52.7	50.3	74	42.3	4.0	NE	4.00	7.0	ENE	49.2	50.0	48.9	30.180	0.00	0.00	0.613	0.000	80.9	35	50.7	79.4	1406	1	100.0	60
01/06/19	8:00 p	47.8	50.3	47.8	79	41.6	0.0	NE	0.00	7.0	NE	47.8	47.6	47.6	30.210	0.00	0.00	0.717	0.000	82.4	34	51.2	81.0	1404	1	100.0	60
01/06/19	9:00 p	44.4	47.8	44.4	85	40.2	0.0	NE	0.00	4.0	NE	44.4	44.3	44.3	30.231	0.00	0.00	0.858	0.000	82.7	34	51.5	81.3	1405	1	100.0	60
01/06/19	10:00 p	45.1	45.1	42.8	81	39.6	5.0	NE	5.00	15.0	NNE	42.4	44.9	42.2	30.269	0.00	0.00	0.829	0.000	82.0	34	50.9	80.6	1405	1	100.0	60
01/06/19	11:00 p	47.4	47.5	45.1	70	38.1	7.0	NE	7.00	17.0	NE	44.1	46.9	43.6	30.278	0.00	0.00	0.733	0.000	81.4	34	50.3	79.9	1405	1	100.0	60
01/07/19	12:00 a	46.5	47.4	46.5	71	37.6	6.0	NE	6.00	17.0	NE	43.5	46.0	43.0	30.297	0.00	0.00	0.771	0.000	81.2	33	49.4	79.5	1405	1	100.0	60
MONDAY			Temp	Hi	Low	Out	Dew	Wind	Wind	Wind	Hi	Hi	Wind	Heat	THW			Rain	Heat	Cool	In 	In	In 	In 	Wind	Wind	ISS 	Arc.
Date		Time	Out	Temp	Temp	Hum	Pt.	Speed	Dir	Run	Speed	Dir	Chill	Index	Index	Bar  	Rain	Rate	D-D 	D-D 	Temp	Hum	Dew	Heat	Samp	Tx 	Recept	Int.
01/07/19	1:00 a	46.2	46.5	46.2	66	35.5	7.0	NE	7.00	16.0	ENE	42.6	45.5	41.9	30.311	0.00	0.00	0.783	0.000	81.1	33	49.3	79.4	1404	1	100.0	60
01/07/19	2:00 a	45.6	46.2	45.6	68	35.6	7.0	NE	7.00	16.0	NE	41.9	45.0	41.3	30.326	0.00	0.00	0.808	0.000	81.6	33	49.7	80.0	1405	1	100.0	60
01/07/19	3:00 a	45.4	45.6	45.4	68	35.5	7.0	NE	7.00	20.0	NNE	41.7	44.8	41.1	30.350	0.00	0.00	0.817	0.000	81.4	32	48.7	79.7	1405	1	100.0	60
01/07/19	4:00 a	45.2	45.4	45.1	69	35.6	10.0	NE	10.00	18.0	NE	39.7	44.7	39.2	30.345	0.00	0.00	0.825	0.000	81.0	32	48.4	79.2	1405	1	100.0	60
01/07/19	5:00 a	43.9	45.1	43.9	65	32.9	11.0	NE	11.00	19.0	NE	37.7	43.2	37.0	30.354	0.00	0.00	0.879	0.000	80.7	32	48.1	78.9	1404	1	100.0	60
01/07/19	6:00 a	42.1	43.9	42.1	65	31.2	11.0	ENE	11.00	21.0	NE	35.6	41.4	34.9	30.370	0.00	0.00	0.954	0.000	80.9	31	47.4	79.0	1405	1	100.0	60
01/07/19	7:00 a	41.2	42.1	41.2	69	31.8	7.0	NE	7.00	17.0	NE	36.5	40.6	35.9	30.388	0.00	0.00	0.992	0.000	79.5	31	46.2	77.7	1405	1	100.0	60
01/07/19	8:00 a	41.7	41.7	41.2	70	32.6	11.0	NE	11.00	22.0	ENE	35.2	41.1	34.6	30.428	0.00	0.00	0.971	0.000	79.2	31	45.9	77.5	1405	1	100.0	60
01/07/19	9:00 a	42.8	42.9	41.6	72	34.4	12.0	NE	12.00	21.0	ENE	36.1	42.3	35.6	30.457	0.00	0.00	0.925	0.000	79.6	30	45.4	77.7	1405	1	100.0	60
01/07/19	10:00 a	44.2	44.2	42.8	65	33.2	13.0	ENE	13.00	24.0	NE	37.2	43.5	36.5	30.457	0.00	0.00	0.867	0.000	79.1	30	45.0	77.3	1405	1	100.0	60
01/07/19	11:00 a	44.5	44.7	44.1	68	34.6	12.0	ENE	12.00	21.0	NE	38.0	43.9	37.4	30.455	0.00	0.00	0.854	0.000	81.7	30	47.2	79.8	1405	1	100.0	60
01/07/19	12:00 p	45.6	45.6	44.5	64	34.1	11.0	ENE	11.00	19.0	ENE	39.7	44.9	39.0	30.418	0.00	0.00	0.808	0.000	83.8	29	48.1	81.9	1405	1	100.0	60
01/07/19	1:00 p	46.2	46.3	45.6	61	33.5	10.0	E	10.00	20.0	NNE	40.8	45.4	40.0	30.381	0.00	0.00	0.783	0.000	84.4	29	48.7	82.5	1405	1	100.0	60
01/07/19	2:00 p	46.1	46.9	46.1	63	34.2	7.0	ENE	7.00	15.0	NE	42.5	45.4	41.8	30.383	0.00	0.00	0.788	0.000	84.1	29	48.4	82.2	1405	1	100.0	60
01/07/19	3:00 p	45.8	46.4	45.8	66	35.1	6.0	ENE	6.00	15.0	ENE	42.7	45.1	42.0	30.379	0.00	0.00	0.800	0.000	84.1	29	48.4	82.2	1405	1	100.0	60
01/07/19	4:00 p	45.7	46.0	45.7	69	36.1	6.0	E	6.00	14.0	NE	42.5	45.2	42.0	30.377	0.00	0.00	0.804	0.000	83.8	29	48.1	81.9	1404	1	100.0	60
01/07/19	5:00 p	44.8	45.7	44.8	73	36.7	5.0	E	5.00	12.0	E	42.1	44.4	41.7	30.368	0.00	0.00	0.842	0.000	83.8	29	48.1	81.9	1405	1	100.0	60
01/07/19	6:00 p	43.4	44.8	43.4	78	37.0	5.0	SE	5.00	13.0	SE	40.5	43.1	40.2	30.361	0.00	0.00	0.900	0.000	81.8	30	47.3	79.9	1405	1	100.0	60
01/07/19	7:00 p	43.1	43.4	43.1	80	37.3	4.0	SE	4.00	7.0	SE	40.9	42.8	40.6	30.354	0.00	0.00	0.913	0.000	81.3	31	47.8	79.4	1405	1	100.0	60
01/07/19	8:00 p	42.2	43.1	42.2	83	37.4	4.0	SE	4.00	12.0	SE	39.8	42.0	39.6	30.326	0.00	0.00	0.950	0.000	80.8	30	46.5	78.8	1405	1	100.0	60
01/07/19	9:00 p	42.0	42.2	41.8	87	38.4	4.0	SE	4.00	7.0	SSE	39.6	41.9	39.5	30.299	0.00	0.00	0.958	0.000	80.7	30	46.4	78.7	1405	1	100.0	60
01/07/19	10:00 p	42.9	42.9	42.0	87	39.3	4.0	SSE	4.00	6.0	E	40.7	42.8	40.6	30.276	0.00	0.00	0.921	0.000	81.7	30	47.2	79.8	1405	1	100.0	60
01/07/19	11:00 p	43.5	43.5	42.9	89	40.5	4.0	SSE	4.00	7.0	SE	41.3	43.5	41.3	30.245	0.00	0.00	0.896	0.000	81.5	30	47.1	79.5	1405	1	100.0	60
01/08/19	12:00 a	44.6	44.6	43.5	90	41.8	4.0	SSE	4.00	7.0	SSE	42.6	44.7	42.7	30.219	0.00	0.00	0.850	0.000	81.1	30	46.7	79.1	1405	1	100.0	60
TUESDAY			Temp	Hi	Low	Out	Dew	Wind	Wind	Wind	Hi	Hi	Wind	Heat	THW			Rain	Heat	Cool	In 	In	In 	In 	Wind	Wind	ISS 	Arc.
Date		Time	Out	Temp	Temp	Hum	Pt.	Speed	Dir	Run	Speed	Dir	Chill	Index	Index	Bar  	Rain	Rate	D-D 	D-D 	Temp	Hum	Dew	Heat	Samp	Tx 	Recept	Int.
01/08/19	1:00 a	45.2	45.2	44.6	90	42.4	4.0	SSW	4.00	7.0	SW	43.3	45.3	43.4	30.190	0.00	0.00	0.825	0.000	79.7	31	46.4	77.9	1403	1	100.0	60
01/08/19	2:00 a	44.9	45.2	44.8	90	42.1	4.0	W	4.00	6.0	SSW	43.0	45.0	43.1	30.173	0.00	0.00	0.837	0.000	79.5	31	46.2	77.7	1405	1	100.0	60
01/08/19	3:00 a	44.8	44.9	44.7	90	42.0	4.0	SSW	4.00	10.0	S	42.9	44.9	43.0	30.138	0.00	0.00	0.842	0.000	78.4	31	45.3	76.8	1405	1	100.0	60
01/08/19	4:00 a	45.5	45.5	44.8	92	43.3	5.0	S	5.00	13.0	NW	42.9	45.7	43.1	30.141	0.00	0.00	0.813	0.000	78.1	31	45.0	76.5	1405	1	100.0	60
01/08/19	5:00 a	46.0	46.1	45.5	94	44.4	5.0	NW	5.00	15.0	NW	43.5	46.3	43.8	30.134	0.01	0.00	0.792	0.000	78.1	31	45.0	76.5	1405	1	100.0	60
01/08/19	6:00 a	45.8	46.0	45.8	96	44.7	4.0	NNW	4.00	7.0	NW	44.0	46.1	44.3	30.144	0.02	0.07	0.800	0.000	78.2	32	45.9	76.7	1405	1	100.0	60
01/08/19	7:00 a	45.6	45.8	45.6	96	44.5	0.0	NW	0.00	6.0	NW	45.6	45.9	45.9	30.125	0.00	0.00	0.808	0.000	78.4	32	46.1	76.9	1405	1	100.0	60
01/08/19	8:00 a	45.3	45.6	45.3	96	44.2	0.0	NW	0.00	5.0	NW	45.3	45.6	45.6	30.099	0.00	0.00	0.821	0.000	79.1	32	46.7	77.5	1405	1	100.0	60
01/08/19	9:00 a	46.1	46.1	45.3	98	45.6	4.0	SW	4.00	10.0	S	44.3	46.5	44.7	30.098	0.00	0.00	0.788	0.000	79.7	32	47.2	78.0	1405	1	100.0	60
01/08/19	10:00 a	48.8	48.8	46.1	98	48.3	5.0	SW	5.00	13.0	SSW	46.8	49.4	47.4	30.098	0.00	0.00	0.675	0.000	80.1	32	47.6	78.3	1405	1	100.0	60
01/08/19	11:00 a	51.8	51.8	48.8	99	51.5	6.0	SW	6.00	15.0	SW	49.8	52.3	50.3	30.060	0.00	0.00	0.550	0.000	79.4	34	48.6	78.0	1405	1	100.0	60
01/08/19	12:00 p	54.8	54.8	51.8	97	54.0	7.0	SW	7.00	16.0	SW	53.0	55.1	53.3	29.990	0.00	0.00	0.425	0.000	80.4	33	48.7	78.7	1405	1	100.0	60
01/08/19	1:00 p	56.9	56.9	54.8	94	55.2	10.0	SW	10.00	22.0	SW	53.4	57.1	53.6	29.936	0.00	0.00	0.337	0.000	81.2	33	49.4	79.5	1405	1	100.0	60
01/08/19	2:00 p	59.5	59.5	56.9	88	55.9	10.0	SW	10.00	21.0	SW	56.4	59.7	56.6	29.897	0.00	0.00	0.229	0.000	81.2	34	50.2	79.6	1405	1	100.0	60
01/08/19	3:00 p	61.9	61.9	59.5	83	56.7	10.0	SW	10.00	20.0	WSW	59.2	62.1	59.4	29.873	0.00	0.00	0.129	0.000	81.8	34	50.7	80.3	1404	1	100.0	60
01/08/19	4:00 p	62.1	62.6	61.9	79	55.5	11.0	SW	11.00	25.0	SW	58.7	62.2	58.8	29.846	0.00	0.00	0.121	0.000	81.8	34	50.7	80.3	1405	1	100.0	60
01/08/19	5:00 p	61.1	62.1	61.0	78	54.2	7.0	SSW	7.00	21.0	SW	60.5	61.0	60.4	29.825	0.00	0.00	0.163	0.000	81.1	34	50.1	79.5	1405	1	100.0	60
01/08/19	6:00 p	59.6	61.0	59.6	81	53.8	6.0	SSW	6.00	16.0	SW	59.1	59.5	59.0	29.819	0.00	0.00	0.225	0.000	81.2	35	50.9	79.7	1405	1	100.0	60
01/08/19	7:00 p	59.0	59.6	59.0	80	52.8	6.0	SSW	6.00	14.0	SW	58.4	58.8	58.2	29.810	0.00	0.00	0.250	0.000	81.3	35	51.0	79.9	1405	1	100.0	60
01/08/19	8:00 p	57.9	59.0	57.9	80	51.8	6.0	SSW	6.00	14.0	S	57.1	57.7	56.9	29.782	0.00	0.00	0.296	0.000	81.7	35	51.4	80.3	1405	1	100.0	60
01/08/19	9:00 p	58.6	58.6	57.9	77	51.4	7.0	SSW	7.00	18.0	SW	57.5	58.2	57.1	29.763	0.00	0.00	0.267	0.000	81.9	35	51.6	80.6	1405	1	100.0	60
01/08/19	10:00 p	58.8	58.8	58.6	76	51.2	10.0	SSW	10.00	20.0	SW	55.6	58.4	55.2	29.736	0.00	0.00	0.258	0.000	83.0	34	51.7	81.6	1405	1	100.0	60
01/08/19	11:00 p	58.6	58.8	58.6	77	51.4	10.0	SW	10.00	21.0	SSW	55.3	58.2	54.9	29.716	0.00	0.00	0.267	0.000	83.1	34	51.8	81.8	1405	1	100.0	60
WEDNESDAY		Temp	Hi	Low	Out	Dew	Wind	Wind	Wind	Hi	Hi	Wind	Heat	THW			Rain	Heat	Cool	In 	In	In 	In 	Wind	Wind	ISS 	Arc.
Date		Time	Out	Temp	Temp	Hum	Pt.	Speed	Dir	Run	Speed	Dir	Chill	Index	Index	Bar  	Rain	Rate	D-D 	D-D 	Temp	Hum	Dew	Heat	Samp	Tx 	Recept	Int.
01/09/19	1:00 a	57.5	57.9	57.4	84	52.7	7.0	SW	7.00	24.0	SW	56.2	57.4	56.1	29.708	0.00	0.00	0.313	0.000	81.7	35	51.4	80.3	1403	1	100.0	60
01/09/19	2:00 a	59.1	59.4	57.4	65	47.3	12.0	W	12.00	31.0	W	54.7	58.1	53.7	29.751	0.00	0.00	0.246	0.000	80.8	35	50.6	79.3	1406	1	100.0	60
01/09/19	3:00 a	57.9	59.1	57.9	64	45.8	10.0	W	10.00	25.0	NW	54.5	56.8	53.4	29.749	0.00	0.00	0.296	0.000	80.0	36	50.6	78.6	1405	1	100.0	60
01/09/19	4:00 a	56.9	57.9	56.9	67	46.1	10.0	WNW	10.00	20.0	SW	53.4	56.0	52.5	29.768	0.00	0.00	0.337	0.000	79.3	36	50.0	78.1	1404	1	100.0	60
01/09/19	5:00 a	55.0	56.9	55.0	57	40.0	12.0	NW	12.00	24.0	NW	50.0	53.6	48.6	29.775	0.00	0.00	0.417	0.000	79.5	35	49.4	78.2	1405	1	100.0	60
01/09/19	6:00 a	52.2	55.0	52.2	56	37.0	10.0	NW	10.00	23.0	NW	47.8	51.0	46.6	29.785	0.00	0.00	0.533	0.000	78.8	35	48.8	77.6	1405	1	100.0	60
01/09/19	7:00 a	49.5	52.2	49.5	59	35.8	10.0	NW	10.00	25.0	NW	44.7	48.7	43.9	29.791	0.00	0.00	0.646	0.000	78.9	34	48.1	77.6	1405	1	100.0	60
01/09/19	8:00 a	47.4	49.5	47.4	65	36.2	7.0	W	7.00	19.0	NW	44.1	46.7	43.4	29.813	0.00	0.00	0.733	0.000	79.4	34	48.6	78.0	1405	1	100.0	60
01/09/19	9:00 a	48.0	48.0	47.1	51	30.7	10.0	WNW	10.00	22.0	WNW	43.0	46.8	41.8	29.835	0.00	0.00	0.708	0.000	80.1	33	48.4	78.4	1405	1	100.0	60
01/09/19	10:00 a	49.2	49.2	48.0	45	28.7	12.0	WNW	12.00	22.0	NW	43.4	47.9	42.1	29.840	0.00	0.00	0.658	0.000	80.0	32	47.5	78.2	1405	1	100.0	60
01/09/19	11:00 a	50.2	50.2	49.2	42	28.0	13.0	WNW	13.00	26.0	W	44.1	48.7	42.6	29.818	0.00	0.00	0.617	0.000	81.6	31	48.0	79.8	1405	1	100.0	60
01/09/19	12:00 p	50.7	50.7	50.2	43	29.0	13.0	W	13.00	29.0	W	44.7	49.2	43.2	29.777	0.00	0.00	0.596	0.000	82.6	30	48.0	80.6	1405	1	100.0	60
01/09/19	1:00 p	51.5	51.6	50.7	42	29.1	12.0	WNW	12.00	24.0	NNW	46.0	49.8	44.3	29.757	0.00	0.00	0.563	0.000	83.7	30	49.0	81.9	1404	1	100.0	60
01/09/19	2:00 p	52.0	52.0	51.5	42	29.6	12.0	WNW	12.00	24.0	NW	46.6	50.2	44.8	29.757	0.00	0.00	0.542	0.000	83.9	29	48.2	82.0	1405	1	100.0	60
01/09/19	3:00 p	51.9	52.1	51.4	42	29.5	12.0	W	12.00	24.0	WSW	46.5	50.1	44.7	29.757	0.00	0.00	0.546	0.000	83.9	29	48.2	82.0	1405	1	100.0	60
01/09/19	4:00 p	51.3	51.9	51.3	42	29.0	12.0	WNW	12.00	23.0	NW	45.8	49.6	44.1	29.760	0.00	0.00	0.571	0.000	83.5	29	47.9	81.5	1405	1	100.0	60
01/09/19	5:00 p	50.4	51.3	50.4	45	29.8	7.0	W	7.00	23.0	WNW	47.7	49.0	46.3	29.764	0.00	0.00	0.608	0.000	83.0	30	48.4	81.0	1405	1	100.0	60
01/09/19	6:00 p	49.5	50.4	49.5	49	31.1	6.0	W	6.00	16.0	W	47.1	48.3	45.9	29.782	0.00	0.00	0.646	0.000	83.0	30	48.4	81.0	1405	1	100.0	60
01/09/19	7:00 p	46.5	49.5	46.5	57	32.1	11.0	WNW	11.00	31.0	WNW	40.8	45.6	39.9	29.821	0.00	0.00	0.771	0.000	81.6	30	47.2	79.7	1405	1	100.0	60
01/09/19	8:00 p	44.5	46.5	44.5	51	27.5	13.0	NW	13.00	29.0	WNW	37.6	43.4	36.5	29.837	0.00	0.00	0.854	0.000	81.0	29	45.7	78.9	1405	1	100.0	60
01/09/19	9:00 p	41.6	44.5	41.6	49	23.8	15.0	NW	15.00	28.0	NW	33.7	40.5	32.6	29.853	0.00	0.00	0.975	0.000	81.5	28	45.2	79.3	1405	1	100.0	60
01/09/19	10:00 p	39.7	41.6	39.7	52	23.5	15.0	NW	15.00	31.0	NNW	31.5	38.7	30.5	29.868	0.00	0.00	1.054	0.000	81.2	28	45.0	79.0	1405	1	100.0	60
01/09/19	11:00 p	38.8	39.7	38.8	53	23.1	15.0	NW	15.00	27.0	NW	30.3	37.9	29.4	29.870	0.00	0.00	1.092	0.000	81.5	27	44.3	79.2	1405	1	100.0	60
01/10/19	12:00 a	38.0	38.8	38.0	50	21.0	15.0	NW	15.00	33.0	NW	29.3	37.0	28.3	29.880	0.00	0.00	1.125	0.000	80.0	27	43.0	77.7	1406	1	100.0	60
THURSDAY		Temp	Hi	Low	Out	Dew	Wind	Wind	Wind	Hi	Hi	Wind	Heat	THW			Rain	Heat	Cool	In 	In	In 	In 	Wind	Wind	ISS 	Arc.
Date		Time	Out	Temp	Temp	Hum	Pt.	Speed	Dir	Run	Speed	Dir	Chill	Index	Index	Bar  	Rain	Rate	D-D 	D-D 	Temp	Hum	Dew	Heat	Samp	Tx 	Recept	Int.
01/10/19	1:00 a	37.1	38.0	37.1	49	19.7	16.0	NW	16.00	36.0	NNW	27.8	36.1	26.8	29.883	0.00	0.00	1.163	0.000	79.5	26	41.6	77.2	1402	1	100.0	60
01/10/19	2:00 a	36.8	37.1	36.8	50	19.9	15.0	NW	15.00	34.0	NNW	27.7	35.8	26.7	29.901	0.00	0.00	1.175	0.000	78.6	26	40.8	76.6	1405	1	100.0	60
01/10/19	3:00 a	36.1	36.8	36.1	49	18.8	14.0	NW	14.00	28.0	NW	27.2	35.1	26.2	29.910	0.00	0.00	1.204	0.000	78.1	26	40.4	76.3	1405	1	100.0	60
01/10/19	4:00 a	35.1	36.1	35.1	49	17.8	13.0	WNW	13.00	30.0	W	26.3	34.2	25.4	29.913	0.00	0.00	1.246	0.000	77.6	26	40.0	76.0	1405	1	100.0	60
01/10/19	5:00 a	33.7	35.1	33.7	50	17.0	13.0	WNW	13.00	31.0	WNW	24.5	32.8	23.6	29.930	0.00	0.00	1.304	0.000	77.1	26	39.6	75.8	1405	1	100.0	60
01/10/19	6:00 a	32.6	33.7	32.6	52	16.9	11.0	WNW	11.00	24.0	WSW	24.0	31.7	23.1	29.950	0.00	0.00	1.350	0.000	77.0	26	39.5	75.7	1405	1	100.0	60
01/10/19	7:00 a	31.7	32.6	31.7	55	17.4	10.0	WNW	10.00	20.0	WNW	23.4	30.9	22.6	29.978	0.00	0.00	1.387	0.000	77.6	25	39.0	76.0	1405	1	100.0	60
01/10/19	8:00 a	31.0	31.7	31.0	56	17.1	10.0	WNW	10.00	31.0	WNW	22.5	30.2	21.7	30.001	0.00	0.00	1.417	0.000	79.5	25	40.6	77.1	1405	1	100.0	60
01/10/19	9:00 a	32.1	32.1	31.0	53	16.9	11.0	WNW	11.00	20.0	NW	23.4	31.3	22.6	30.025	0.00	0.00	1.371	0.000	81.4	24	41.1	78.7	1404	1	100.0	60
01/10/19	10:00 a	33.6	33.6	32.1	50	16.9	12.0	WNW	12.00	23.0	WNW	24.8	32.7	23.9	30.031	0.00	0.00	1.308	0.000	81.9	24	41.6	79.3	1405	1	100.0	60
01/10/19	11:00 a	34.9	34.9	33.7	48	17.2	14.0	WNW	14.00	26.0	NW	25.7	34.0	24.8	30.020	0.00	0.00	1.254	0.000	81.0	24	40.8	78.3	1405	1	100.0	60
01/10/19	12:00 p	36.5	36.5	34.9	47	18.2	14.0	WNW	14.00	29.0	WNW	27.7	35.4	26.6	29.994	0.00	0.00	1.188	0.000	80.8	24	40.6	78.1	1405	1	100.0	60
01/10/19	1:00 p	38.2	38.2	36.5	46	19.2	14.0	WNW	14.00	24.0	WNW	29.9	37.1	28.8	29.983	0.00	0.00	1.117	0.000	80.5	24	40.4	77.9	1405	1	100.0	60
01/10/19	2:00 p	39.1	39.1	38.1	44	19.0	14.0	WNW	14.00	26.0	W	31.0	37.9	29.8	29.981	0.00	0.00	1.079	0.000	80.8	23	39.5	78.0	1405	1	100.0	60
01/10/19	3:00 p	39.9	39.9	39.1	43	19.2	14.0	WNW	14.00	25.0	NNW	32.0	38.7	30.8	29.996	0.00	0.00	1.046	0.000	81.5	23	40.1	78.7	1405	1	100.0	60
01/10/19	4:00 p	40.1	40.4	39.9	43	19.4	13.0	WNW	13.00	25.0	W	32.6	38.9	31.4	30.007	0.00	0.00	1.038	0.000	81.3	23	39.9	78.5	1405	1	100.0	60
01/10/19	5:00 p	39.2	40.1	39.2	45	19.6	12.0	WNW	12.00	24.0	WSW	31.8	38.0	30.6	30.040	0.00	0.00	1.075	0.000	80.8	23	39.5	78.0	1405	1	100.0	60
01/10/19	6:00 p	37.9	39.2	37.9	47	19.4	11.0	NW	11.00	20.0	NNW	30.6	36.8	29.5	30.074	0.00	0.00	1.129	0.000	81.3	23	39.9	78.5	1405	1	100.0	60
01/10/19	7:00 p	36.6	37.9	36.6	48	18.7	11.0	NW	11.00	20.0	W	29.0	35.6	28.0	30.091	0.00	0.00	1.183	0.000	80.2	23	39.0	77.5	1405	1	100.0	60
01/10/19	8:00 p	35.4	36.6	35.4	49	18.1	11.0	WNW	11.00	20.0	WNW	27.5	34.4	26.5	30.100	0.00	0.00	1.233	0.000	80.0	23	38.9	77.3	1404	1	100.0	60
01/10/19	9:00 p	34.2	35.4	34.2	51	17.9	10.0	WNW	10.00	17.0	WNW	26.5	33.3	25.6	30.120	0.00	0.00	1.283	0.000	79.5	23	38.4	76.9	1405	1	100.0	60
01/10/19	10:00 p	33.9	34.2	33.7	55	19.4	10.0	NW	10.00	20.0	NW	26.1	33.1	25.3	30.142	0.00	0.00	1.296	0.000	80.8	23	39.5	78.0	1405	1	100.0	60
01/10/19	11:00 p	33.2	34.0	33.1	56	19.2	10.0	NNW	10.00	20.0	NNW	25.2	32.4	24.4	30.156	0.00	0.00	1.325	0.000	81.5	23	40.1	78.7	1405	1	100.0	60
01/11/19	12:00 a	31.9	33.1	31.9	58	18.8	10.0	NNW	10.00	17.0	NW	23.6	31.2	22.9	30.167	0.00	0.00	1.379	0.000	80.3	23	39.1	77.6	1406	1	100.0	60
FRIDAY			Temp	Hi	Low	Out	Dew	Wind	Wind	Wind	Hi	Hi	Wind	Heat	THW			Rain	Heat	Cool	In 	In	In 	In 	Wind	Wind	ISS 	Arc.
Date		Time	Out	Temp	Temp	Hum	Pt.	Speed	Dir	Run	Speed	Dir	Chill	Index	Index	Bar  	Rain	Rate	D-D 	D-D 	Temp	Hum	Dew	Heat	Samp	Tx 	Recept	Int.
01/11/19	1:00 a	31.2	31.9	31.2	61	19.3	10.0	NNW	10.00	18.0	NNW	22.7	30.5	22.0	30.178	0.00	0.00	1.408	0.000	78.8	23	37.9	76.4	1403	1	100.0	60
01/11/19	2:00 a	31.0	31.2	31.0	60	18.7	10.0	NNW	10.00	22.0	NNW	22.5	30.3	21.8	30.189	0.00	0.00	1.417	0.000	78.1	23	37.3	76.1	1405	1	100.0	60
01/11/19	3:00 a	30.6	31.0	30.5	61	18.7	10.0	NNW	10.00	19.0	NNW	22.0	29.9	21.3	30.208	0.00	0.00	1.433	0.000	77.4	23	36.7	75.8	1405	1	100.0	60
01/11/19	4:00 a	30.1	30.6	30.1	62	18.6	12.0	NNW	12.00	22.0	NW	20.4	29.4	19.7	30.221	0.00	0.00	1.454	0.000	77.9	22	36.0	76.0	1405	1	100.0	60
01/11/19	5:00 a	29.9	30.1	29.9	63	18.8	10.0	NNW	10.00	20.0	N	21.1	29.3	20.5	30.234	0.00	0.00	1.463	0.000	77.7	22	35.8	75.9	1405	1	100.0	60
01/11/19	6:00 a	30.0	30.1	29.9	62	18.5	12.0	NNW	12.00	22.0	NNW	20.3	29.3	19.6	30.245	0.00	0.00	1.458	0.000	77.5	22	35.6	75.8	1404	1	100.0	60
01/11/19	7:00 a	29.8	30.1	29.8	62	18.4	11.0	NNW	11.00	23.0	N	20.5	29.2	19.9	30.261	0.00	0.00	1.467	0.000	78.2	22	36.2	76.1	1405	1	100.0	60
01/11/19	8:00 a	29.8	29.8	29.6	64	19.1	12.0	NNW	12.00	22.0	NW	20.0	29.2	19.4	30.289	0.00	0.00	1.467	0.000	78.0	22	36.1	76.0	1405	1	100.0	60
01/11/19	9:00 a	30.5	30.6	29.8	62	19.0	12.0	NNW	12.00	23.0	NNW	20.9	29.8	20.2	30.326	0.00	0.00	1.438	0.000	78.4	21	35.2	76.1	1405	1	100.0	60
01/11/19	10:00 a	32.1	32.1	30.5	61	20.2	12.0	NNW	12.00	24.0	NW	22.9	31.4	22.2	30.348	0.00	0.00	1.371	0.000	79.8	21	36.4	76.9	1405	1	100.0	60
01/11/19	11:00 a	33.4	33.4	32.1	60	21.0	12.0	NNW	12.00	21.0	NNW	24.5	32.7	23.8	30.359	0.00	0.00	1.317	0.000	80.8	21	37.2	77.8	1405	1	100.0	60
01/11/19	12:00 p	34.4	34.4	33.4	59	21.5	10.0	NNW	10.00	19.0	NE	26.7	33.7	26.0	30.337	0.00	0.00	1.275	0.000	81.1	21	37.5	78.1	1405	1	100.0	60
01/11/19	1:00 p	35.6	35.6	34.4	56	21.4	6.0	NW	6.00	15.0	NW	30.5	34.8	29.7	30.321	0.00	0.00	1.225	0.000	81.0	21	37.4	78.0	1405	1	100.0	60
01/11/19	2:00 p	36.8	36.8	35.6	54	21.7	6.0	NW	6.00	15.0	NNW	31.9	35.9	31.0	30.314	0.00	0.00	1.175	0.000	81.5	21	37.8	78.5	1405	1	100.0	60
01/11/19	3:00 p	37.5	37.5	36.8	53	21.9	6.0	NW	6.00	16.0	NW	32.8	36.6	31.9	30.318	0.00	0.00	1.146	0.000	82.2	21	38.4	79.2	1404	1	100.0	60
01/11/19	4:00 p	37.9	37.9	37.5	51	21.4	6.0	NNW	6.00	14.0	NE	33.3	36.9	32.3	30.334	0.00	0.00	1.129	0.000	82.1	21	38.3	79.1	1405	1	100.0	60
01/11/19	5:00 p	37.6	37.9	37.5	52	21.5	5.0	NNW	5.00	14.0	NNW	33.7	36.6	32.7	30.351	0.00	0.00	1.142	0.000	81.2	22	38.7	78.3	1405	1	100.0	60
01/11/19	6:00 p	35.7	37.5	35.7	57	21.9	0.0	NNW	0.00	6.0	NW	35.7	34.9	34.9	30.373	0.00	0.00	1.221	0.000	79.8	22	37.6	77.0	1405	1	100.0	60
01/11/19	7:00 p	33.1	35.7	33.1	66	23.0	0.0	N	0.00	4.0	N	33.1	32.5	32.5	30.387	0.00	0.00	1.329	0.000	79.9	22	37.6	77.1	1405	1	100.0	60
01/11/19	8:00 p	31.3	33.1	31.3	70	22.6	0.0	N	0.00	4.0	N	31.3	30.8	30.8	30.387	0.00	0.00	1.404	0.000	81.3	22	38.8	78.4	1405	1	100.0	60
01/11/19	9:00 p	31.0	31.3	31.0	72	23.0	0.0	NNW	0.00	5.0	N	31.0	30.5	30.5	30.403	0.00	0.00	1.417	0.000	81.4	22	38.9	78.5	1405	1	100.0	60
01/11/19	10:00 p	30.4	31.0	30.4	78	24.4	0.0	NNW	0.00	5.0	NNW	30.4	30.1	30.1	30.424	0.00	0.00	1.442	0.000	81.4	22	38.9	78.5	1405	1	100.0	60
01/11/19	11:00 p	29.8	30.4	29.8	76	23.2	0.0	NNW	0.00	5.0	NNW	29.8	29.4	29.4	30.428	0.00	0.00	1.467	0.000	81.1	22	38.6	78.2	1405	1	100.0	60
01/12/19	12:00 a	29.5	29.8	29.5	78	23.5	0.0	NNE	0.00	5.0	NNE	29.5	29.2	29.2	30.414	0.00	0.00	1.479	0.000	80.1	22	37.8	77.3	1404	1	100.0	60
SATURDAY		Temp	Hi	Low	Out	Dew	Wind	Wind	Wind	Hi	Hi	Wind	Heat	THW			Rain	Heat	Cool	In 	In	In 	In 	Wind	Wind	ISS 	Arc.
Date		Time	Out	Temp	Temp	Hum	Pt.	Speed	Dir	Run	Speed	Dir	Chill	Index	Index	Bar  	Rain	Rate	D-D 	D-D 	Temp	Hum	Dew	Heat	Samp	Tx 	Recept	Int.
01/12/19	1:00 a	28.4	29.5	28.4	80	23.0	0.0	NNE	0.00	5.0	NNE	28.4	28.1	28.1	30.441	0.00	0.00	1.525	0.000	77.6	22	35.7	75.8	1403	1	100.0	60
01/12/19	2:00 a	27.5	28.4	27.5	84	23.3	0.0	ESE	0.00	6.0	ESE	27.5	27.3	27.3	30.450	0.00	0.00	1.563	0.000	77.3	22	35.5	75.7	1405	1	100.0	60
01/12/19	3:00 a	27.3	27.5	27.2	86	23.7	0.0	ESE	0.00	4.0	ESE	27.3	27.1	27.1	30.459	0.00	0.00	1.571	0.000	76.9	22	35.1	75.4	1405	1	100.0	60
01/12/19	4:00 a	27.8	27.8	27.2	87	24.4	0.0	ESE	0.00	4.0	ESE	27.8	27.6	27.6	30.453	0.00	0.00	1.550	0.000	76.2	22	34.6	74.5	1405	1	100.0	60
01/12/19	5:00 a	28.4	28.4	27.7	88	25.3	0.0	ESE	0.00	4.0	ESE	28.4	28.2	28.2	30.464	0.00	0.00	1.525	0.000	76.6	22	34.9	75.0	1405	1	100.0	60
01/12/19	6:00 a	29.6	29.6	28.4	89	26.8	0.0	ESE	0.00	4.0	ESE	29.6	29.4	29.4	30.470	0.00	0.00	1.475	0.000	76.9	22	35.1	75.4	1405	1	100.0	60
01/12/19	7:00 a	32.5	32.5	29.6	76	25.8	4.0	ENE	4.00	7.0	N	28.7	32.1	28.3	30.487	0.00	0.00	1.354	0.000	78.1	22	36.1	76.1	1405	1	100.0	60
01/12/19	8:00 a	34.8	34.8	32.5	72	26.7	0.0	NE	0.00	4.0	NE	34.8	34.3	34.3	30.490	0.00	0.00	1.258	0.000	78.8	22	36.7	76.3	1404	1	100.0	60
01/12/19	9:00 a	37.0	37.0	34.8	64	25.9	4.0	ENE	4.00	7.0	NNE	33.9	36.3	33.2	30.506	0.00	0.00	1.167	0.000	79.6	22	37.4	76.9	1405	1	100.0	60
01/12/19	10:00 a	38.5	38.5	37.0	58	25.0	5.0	NNW	5.00	7.0	NE	34.7	37.7	33.9	30.533	0.00	0.00	1.104	0.000	80.2	22	37.9	77.4	1406	1	100.0	60
01/12/19	11:00 a	39.5	39.5	38.5	56	25.1	5.0	NNW	5.00	12.0	NE	35.9	38.6	35.0	30.503	0.00	0.00	1.063	0.000	79.3	22	37.1	76.6	1404	1	100.0	60
01/12/19	12:00 p	40.1	40.2	39.5	62	28.1	7.0	NE	7.00	14.0	NE	35.2	39.3	34.4	30.470	0.00	0.00	1.038	0.000	80.8	22	38.4	77.9	1405	1	100.0	60
01/12/19	1:00 p	41.5	41.5	40.0	64	30.2	6.0	NE	6.00	14.0	NE	37.5	40.8	36.8	30.466	0.00	0.00	0.979	0.000	81.5	22	39.0	78.6	1405	1	100.0	60
01/12/19	2:00 p	42.2	42.2	41.5	62	30.1	5.0	NE	5.00	13.0	NNE	39.0	41.4	38.2	30.467	0.00	0.00	0.950	0.000	82.2	23	40.7	79.5	1405	1	100.0	60
01/12/19	3:00 p	42.1	42.3	42.1	63	30.4	6.0	NW	6.00	16.0	NNW	38.2	41.4	37.5	30.448	0.00	0.00	0.954	0.000	82.8	24	42.3	80.1	1405	1	100.0	60
01/12/19	4:00 p	40.7	42.1	40.7	65	29.8	10.0	NE	10.00	16.0	NE	34.4	40.0	33.7	30.433	0.00	0.00	1.012	0.000	82.1	23	40.6	79.4	1405	1	100.0	60
01/12/19	5:00 p	39.5	40.7	39.5	64	28.3	7.0	NE	7.00	18.0	NNE	34.5	38.8	33.8	30.437	0.00	0.00	1.063	0.000	81.2	23	39.9	78.4	1405	1	100.0	60
01/12/19	6:00 p	37.7	39.5	37.7	79	31.8	7.0	NNW	7.00	16.0	NE	32.4	37.4	32.1	30.461	0.00	0.00	1.137	0.000	79.8	23	38.7	77.1	1405	1	100.0	60
01/12/19	7:00 p	37.7	37.7	37.4	77	31.1	7.0	NE	7.00	17.0	NE	32.4	37.3	32.0	30.478	0.00	0.00	1.137	0.000	79.1	23	38.1	76.5	1405	1	100.0	60
01/12/19	8:00 p	38.1	38.1	37.7	78	31.8	7.0	ENE	7.00	15.0	ENE	32.8	37.8	32.5	30.452	0.00	0.00	1.121	0.000	78.6	23	37.7	76.3	1404	1	100.0	60
01/12/19	9:00 p	36.4	38.2	36.4	91	34.0	7.0	ENE	7.00	17.0	NE	30.8	36.3	30.7	30.427	0.02	0.00	1.192	0.000	79.0	23	38.0	76.5	1405	1	100.0	60
01/12/19	10:00 p	36.9	36.9	36.4	94	35.3	7.0	ENE	7.00	18.0	ENE	31.4	36.9	31.4	30.439	0.01	0.00	1.171	0.000	80.5	23	39.3	77.8	1405	1	100.0	60
01/12/19	11:00 p	37.3	37.3	36.9	96	36.3	11.0	ENE	11.00	20.0	ENE	29.9	37.3	29.9	30.391	0.01	0.00	1.154	0.000	81.8	23	40.4	79.0	1405	1	100.0	60
01/13/19	12:00 a	37.9	37.9	37.3	96	36.9	7.0	ENE	7.00	16.0	E	32.6	37.9	32.6	30.367	0.00	0.00	1.129	0.000	81.4	23	40.0	78.6	1405	1	100.0	60
SUNDAY			Temp	Hi	Low	Out	Dew	Wind	Wind	Wind	Hi	Hi	Wind	Heat	THW			Rain	Heat	Cool	In 	In	In 	In 	Wind	Wind	ISS 	Arc.
Date		Time	Out	Temp	Temp	Hum	Pt.	Speed	Dir	Run	Speed	Dir	Chill	Index	Index	Bar  	Rain	Rate	D-D 	D-D 	Temp	Hum	Dew	Heat	Samp	Tx 	Recept	Int.
01/13/19	1:00 a	38.7	38.7	37.9	96	37.7	6.0	ENE	6.00	14.0	NE	34.2	38.7	34.2	30.333	0.02	0.00	1.096	0.000	79.6	24	39.6	77.1	1404	1	100.0	60
01/13/19	2:00 a	39.7	39.7	38.7	97	38.9	6.0	NE	6.00	14.0	NNE	35.4	39.8	35.5	30.328	0.03	0.12	1.054	0.000	78.7	24	38.9	76.4	1405	1	100.0	60
01/13/19	3:00 a	40.6	40.6	39.7	97	39.8	10.0	ENE	10.00	18.0	NNE	34.3	40.7	34.4	30.291	0.03	0.04	1.017	0.000	78.3	24	38.5	76.3	1405	1	100.0	60
01/13/19	4:00 a	41.0	41.1	40.6	98	40.5	10.0	NE	10.00	16.0	NE	34.8	41.2	35.0	30.268	0.03	0.04	1.000	0.000	78.1	25	39.4	76.2	1404	1	100.0	60
01/13/19	5:00 a	41.4	41.4	41.0	98	40.9	7.0	ENE	7.00	17.0	NE	36.8	41.6	37.0	30.250	0.03	0.05	0.983	0.000	77.9	25	39.2	76.1	1405	1	100.0	60
01/13/19	6:00 a	42.1	42.1	41.4	98	41.6	10.0	ENE	10.00	17.0	ENE	36.1	42.3	36.3	30.215	0.03	0.07	0.954	0.000	77.8	25	39.1	76.1	1405	1	100.0	60
01/13/19	7:00 a	42.6	42.6	42.1	98	42.1	11.0	NE	11.00	17.0	E	36.2	42.8	36.4	30.203	0.07	0.15	0.933	0.000	78.4	25	39.7	76.4	1405	1	100.0	60
01/13/19	8:00 a	43.1	43.1	42.6	98	42.6	12.0	NE	12.00	20.0	NE	36.4	43.3	36.6	30.184	0.10	0.15	0.913	0.000	79.1	25	40.2	76.8	1405	1	100.0	60
01/13/19	9:00 a	42.9	43.2	42.9	98	42.4	13.0	NE	13.00	22.0	NNE	35.8	43.1	36.0	30.170	0.14	0.31	0.921	0.000	81.5	25	42.3	79.0	1405	1	100.0	60
01/13/19	10:00 a	42.5	42.9	42.5	98	42.0	14.0	NE	14.00	26.0	NE	35.0	42.7	35.2	30.162	0.26	0.38	0.938	0.000	81.6	25	42.4	79.1	1405	1	100.0	60
01/13/19	11:00 a	42.0	42.5	42.0	98	41.5	14.0	NE	14.00	27.0	NE	34.4	42.2	34.6	30.154	0.31	0.66	0.958	0.000	79.9	26	41.9	77.5	1405	1	100.0	60
01/13/19	12:00 p	42.6	42.7	42.0	98	42.1	14.0	NE	14.00	26.0	NE	35.1	42.8	35.3	30.094	0.02	0.17	0.933	0.000	79.4	27	42.5	77.2	1405	1	100.0	60
01/13/19	1:00 p	42.7	42.8	42.5	98	42.2	14.0	NE	14.00	26.0	NE	35.2	42.9	35.4	30.050	0.02	0.06	0.929	0.000	81.0	27	43.9	78.6	1405	1	100.0	60
01/13/19	2:00 p	43.4	43.5	42.8	98	42.9	14.0	NE	14.00	28.0	E	36.0	43.7	36.3	30.034	0.01	0.06	0.900	0.000	82.1	26	43.8	79.7	1405	1	100.0	60
01/13/19	3:00 p	43.8	43.8	43.5	99	43.5	13.0	NE	13.00	26.0	ENE	36.8	44.1	37.1	30.036	0.02	0.00	0.883	0.000	81.9	27	44.6	79.6	1405	1	100.0	60
01/13/19	4:00 p	43.5	43.8	43.5	99	43.2	12.0	NE	12.00	22.0	NNE	36.8	43.8	37.1	30.025	0.01	0.00	0.896	0.000	82.0	27	44.7	79.7	1404	1	100.0	60
01/13/19	5:00 p	43.0	43.5	42.9	99	42.7	12.0	NE	12.00	21.0	NE	36.3	43.3	36.6	30.030	0.00	0.00	0.917	0.000	82.6	27	45.2	80.3	1405	1	100.0	60
01/13/19	6:00 p	41.9	43.0	41.9	99	41.6	12.0	NNW	12.00	24.0	NNW	35.0	42.1	35.2	30.051	0.02	0.04	0.962	0.000	81.9	27	44.6	79.6	1405	1	100.0	60
01/13/19	7:00 p	40.2	41.9	40.2	99	39.9	14.0	NNW	14.00	25.0	NW	32.4	40.4	32.6	30.068	0.01	0.00	1.033	0.000	81.5	27	44.3	79.2	1405	1	100.0	60
01/13/19	8:00 p	39.5	40.2	39.5	99	39.2	15.0	NNW	15.00	31.0	NNW	31.2	39.7	31.4	30.080	0.01	0.00	1.063	0.000	81.1	26	43.0	78.6	1405	1	100.0	60
01/13/19	9:00 p	37.1	39.5	37.1	98	36.6	15.0	NNW	15.00	30.0	NNW	28.1	37.2	28.2	30.088	0.01	0.00	1.163	0.000	80.7	26	42.6	78.2	1405	1	100.0	60
01/13/19	10:00 p	36.2	37.1	36.2	98	35.7	15.0	NNW	15.00	28.0	NNW	27.0	36.3	27.1	30.105	0.01	0.00	1.200	0.000	80.2	26	42.2	77.8	1405	1	100.0	60
01/13/19	11:00 p	35.2	36.2	35.2	98	34.7	14.0	NNW	14.00	29.0	NNW	26.0	35.3	26.1	30.115	0.03	0.04	1.242	0.000	80.4	26	42.4	78.0	1405	1	100.0	60
01/14/19	12:00 a	34.6	35.2	34.6	98	34.1	14.0	NNW	14.00	26.0	NW	25.3	34.6	25.3	30.102	0.00	0.00	1.267	0.000	81.1	26	43.0	78.6	1405	1	100.0	60
MONDAY			Temp	Hi	Low	Out	Dew	Wind	Wind	Wind	Hi	Hi	Wind	Heat	THW			Rain	Heat	Cool	In 	In	In 	In 	Wind	Wind	ISS 	Arc.
Date		Time	Out	Temp	Temp	Hum	Pt.	Speed	Dir	Run	Speed	Dir	Chill	Index	Index	Bar  	Rain	Rate	D-D 	D-D 	Temp	Hum	Dew	Heat	Samp	Tx 	Recept	Int.
01/14/19	1:00 a	34.0	34.6	34.0	98	33.5	14.0	NNW	14.00	26.0	NNW	24.5	34.0	24.5	30.103	0.00	0.00	1.292	0.000	81.6	25	42.4	79.1	1403	1	100.0	60
01/14/19	2:00 a	33.8	34.1	33.8	98	33.3	14.0	NNW	14.00	27.0	NW	24.3	33.8	24.3	30.131	0.00	0.00	1.300	0.000	81.1	25	41.9	78.5	1406	1	100.0	60
01/14/19	3:00 a	33.4	33.9	33.4	97	32.6	14.0	NNW	14.00	29.0	N	23.7	33.3	23.6	30.142	0.00	0.00	1.317	0.000	81.2	25	42.0	78.6	1404	1	100.0	60
01/14/19	4:00 a	33.2	33.4	33.2	97	32.4	14.0	NNW	14.00	25.0	N	23.5	33.1	23.4	30.144	0.00	0.00	1.325	0.000	81.7	24	41.4	79.1	1405	1	100.0	60
01/14/19	5:00 a	32.6	33.2	32.6	97	31.8	14.0	NNW	14.00	28.0	NNW	22.7	32.6	22.7	30.146	0.00	0.00	1.350	0.000	81.1	24	40.9	78.4	1405	1	100.0	60
01/14/19	6:00 a	32.6	32.7	32.6	96	31.6	13.0	NNW	13.00	23.0	NNW	23.1	32.5	23.0	30.170	0.00	0.00	1.350	0.000	80.6	24	40.5	77.9	1405	1	100.0	60
01/14/19	7:00 a	32.4	32.6	32.4	95	31.1	12.0	NNW	12.00	21.0	NW	23.3	32.3	23.2	30.183	0.00	0.00	1.358	0.000	79.0	25	40.2	76.7	1405	1	100.0	60
01/14/19	8:00 a	32.4	32.5	32.3	94	30.9	10.0	NNW	10.00	18.0	NNW	24.2	32.3	24.1	30.186	0.00	0.00	1.358	0.000	78.7	25	39.9	76.5	1405	1	100.0	60
01/14/19	9:00 a	32.7	32.7	32.4	92	30.6	11.0	NNW	11.00	18.0	NNW	24.1	32.6	24.0	30.213	0.00	0.00	1.346	0.000	79.0	25	40.2	76.7	1405	1	100.0	60
01/14/19	10:00 a	33.5	33.5	32.7	90	30.9	10.0	NNW	10.00	20.0	NW	25.6	33.3	25.4	30.234	0.00	0.00	1.313	0.000	79.1	24	39.2	76.7	1405	1	100.0	60
01/14/19	11:00 a	34.5	34.5	33.4	91	32.1	10.0	NNW	10.00	18.0	NNW	26.8	34.4	26.7	30.233	0.00	0.00	1.271	0.000	79.1	25	40.2	76.8	1404	1	100.0	60
01/14/19	12:00 p	35.1	35.2	34.5	89	32.2	11.0	NNW	11.00	20.0	NW	27.1	35.0	27.0	30.205	0.00	0.00	1.246	0.000	80.1	25	41.1	77.6	1405	1	100.0	60
01/14/19	1:00 p	35.3	35.4	35.1	89	32.4	11.0	NNW	11.00	21.0	N	27.4	35.2	27.3	30.191	0.00	0.00	1.238	0.000	80.2	24	40.1	77.6	1405	1	100.0	60
01/14/19	2:00 p	35.9	35.9	35.2	87	32.4	10.0	NNW	10.00	19.0	N	28.6	35.7	28.4	30.181	0.00	0.00	1.212	0.000	79.7	25	40.8	77.3	1405	1	100.0	60
01/14/19	3:00 p	36.9	36.9	35.9	84	32.5	10.0	NNW	10.00	18.0	NNW	29.8	36.7	29.6	30.178	0.00	0.00	1.171	0.000	79.3	25	40.4	76.9	1405	1	100.0	60
01/14/19	4:00 p	36.6	37.0	36.6	80	31.0	10.0	NNW	10.00	19.0	NNW	29.4	36.3	29.1	30.176	0.00	0.00	1.183	0.000	79.9	25	40.9	77.4	1405	1	100.0	60
01/14/19	5:00 p	36.1	36.6	36.1	79	30.2	6.0	NNW	6.00	15.0	NW	31.1	35.8	30.8	30.177	0.00	0.00	1.204	0.000	79.7	25	40.8	77.3	1405	1	100.0	60
01/14/19	6:00 p	34.2	36.1	34.2	84	29.9	0.0	NNW	0.00	4.0	NNW	34.2	33.9	33.9	30.187	0.00	0.00	1.283	0.000	79.2	26	41.3	77.0	1405	1	100.0	60
01/14/19	7:00 p	32.1	34.2	32.1	89	29.2	0.0	NNW	0.00	4.0	NNW	32.1	32.0	32.0	30.193	0.00	0.00	1.371	0.000	79.2	26	41.3	77.0	1405	1	100.0	60
01/14/19	8:00 p	31.3	32.1	31.3	92	29.2	0.0	WNW	0.00	6.0	NW	31.3	31.2	31.2	30.185	0.00	0.00	1.404	0.000	79.7	25	40.8	77.3	1405	1	100.0	60
01/14/19	9:00 p	30.9	31.3	30.9	93	29.1	4.0	W	4.00	7.0	WNW	26.8	30.8	26.7	30.183	0.00	0.00	1.421	0.000	79.4	25	40.5	77.0	1405	1	100.0	60
01/14/19	10:00 p	30.1	31.0	30.1	93	28.3	0.0	W	0.00	5.0	W	30.1	30.0	30.0	30.187	0.00	0.00	1.454	0.000	78.4	26	40.7	76.5	1404	1	100.0	60
01/14/19	11:00 p	29.8	30.1	29.6	95	28.5	4.0	NNW	4.00	7.0	NNW	25.5	29.7	25.4	30.191	0.00	0.00	1.467	0.000	79.5	25	40.6	77.1	1405	1	100.0	60
01/15/19	12:00 a	30.9	30.9	29.8	92	28.9	5.0	NW	5.00	11.0	NNW	25.8	30.7	25.6	30.184	0.00	0.00	1.421	0.000	79.1	25	40.2	76.8	1405	1	100.0	60
TUESDAY			Temp	Hi	Low	Out	Dew	Wind	Wind	Wind	Hi	Hi	Wind	Heat	THW			Rain	Heat	Cool	In 	In	In 	In 	Wind	Wind	ISS 	Arc.
Date		Time	Out	Temp	Temp	Hum	Pt.	Speed	Dir	Run	Speed	Dir	Chill	Index	Index	Bar  	Rain	Rate	D-D 	D-D 	Temp	Hum	Dew	Heat	Samp	Tx 	Recept	Int.
01/15/19	1:00 a	31.2	31.2	30.8	89	28.3	4.0	NNW	4.00	10.0	NNW	27.2	31.0	27.0	30.177	0.00	0.00	1.408	0.000	78.7	24	38.9	76.4	1404	1	100.0	60
01/15/19	2:00 a	31.4	31.4	31.2	87	28.0	4.0	NW	4.00	7.0	NW	27.4	31.2	27.2	30.180	0.00	0.00	1.400	0.000	77.7	25	39.1	76.0	1405	1	100.0	60
01/15/19	3:00 a	31.7	31.7	31.4	85	27.7	4.0	NW	4.00	7.0	WNW	27.7	31.5	27.5	30.177	0.00	0.00	1.387	0.000	78.1	24	38.4	76.2	1405	1	100.0	60
01/15/19	4:00 a	31.3	31.7	31.3	89	28.4	0.0	WNW	0.00	5.0	WNW	31.3	31.1	31.1	30.172	0.00	0.00	1.404	0.000	77.9	24	38.2	76.1	1405	1	100.0	60
01/15/19	5:00 a	31.7	31.7	31.2	92	29.6	4.0	W	4.00	6.0	WNW	27.7	31.6	27.6	30.170	0.00	0.00	1.387	0.000	78.0	24	38.3	76.1	1404	1	100.0	60
01/15/19	6:00 a	32.2	32.2	31.6	91	29.9	4.0	WNW	4.00	7.0	WNW	28.3	32.1	28.2	30.171	0.00	0.00	1.367	0.000	78.9	24	39.0	76.5	1405	1	100.0	60
01/15/19	7:00 a	32.8	32.8	32.2	89	29.9	4.0	WNW	4.00	11.0	WNW	29.0	32.6	28.8	30.184	0.00	0.00	1.342	0.000	78.4	24	38.6	76.3	1405	1	100.0	60
01/15/19	8:00 a	33.3	33.3	32.8	90	30.7	4.0	WNW	4.00	7.0	WNW	29.6	33.1	29.4	30.193	0.00	0.00	1.321	0.000	78.3	25	39.6	76.3	1405	1	100.0	60
01/15/19	9:00 a	34.6	34.6	33.3	88	31.4	5.0	NW	5.00	13.0	NW	30.1	34.4	29.9	30.214	0.00	0.00	1.267	0.000	79.3	25	40.4	76.9	1405	1	100.0	60
01/15/19	10:00 a	35.7	35.7	34.6	81	30.4	10.0	NNW	10.00	17.0	NNW	28.3	35.4	28.0	30.234	0.00	0.00	1.221	0.000	79.7	24	39.7	77.2	1405	1	100.0	60
01/15/19	11:00 a	38.2	38.2	35.7	73	30.3	10.0	NNW	10.00	17.0	NNW	31.4	37.7	30.9	30.235	0.00	0.00	1.117	0.000	80.7	24	40.5	78.0	1405	1	100.0	60
01/15/19	12:00 p	39.4	39.4	38.2	66	29.0	11.0	NNW	11.00	20.0	NNW	32.5	38.7	31.8	30.203	0.00	0.00	1.067	0.000	81.7	24	41.4	79.1	1405	1	100.0	60
01/15/19	1:00 p	40.5	40.5	39.4	65	29.7	7.0	NNW	7.00	18.0	ENE	35.7	39.8	35.0	30.174	0.00	0.00	1.021	0.000	82.1	23	40.6	79.4	1405	1	100.0	60
01/15/19	2:00 p	41.9	41.9	40.5	63	30.2	7.0	NNW	7.00	17.0	NNW	37.4	41.2	36.7	30.156	0.00	0.00	0.962	0.000	82.0	23	40.5	79.3	1405	1	100.0	60
01/15/19	3:00 p	42.5	42.7	41.9	64	31.2	10.0	WNW	10.00	18.0	W	36.6	41.8	35.9	30.170	0.00	0.00	0.938	0.000	82.4	23	40.9	79.7	1404	1	100.0	60
01/15/19	4:00 p	41.4	42.5	41.4	67	31.3	10.0	WNW	10.00	18.0	NNW	35.3	40.7	34.6	30.175	0.00	0.00	0.983	0.000	82.0	23	40.5	79.3	1405	1	100.0	60
01/15/19	5:00 p	40.5	41.5	40.5	70	31.5	6.0	NW	6.00	16.0	W	36.3	39.9	35.7	30.170	0.00	0.00	1.021	0.000	81.3	24	41.0	78.6	1405	1	100.0	60
01/15/19	6:00 p	39.1	40.5	39.1	75	31.8	0.0	NE	0.00	5.0	NW	39.1	38.7	38.7	30.181	0.00	0.00	1.079	0.000	81.0	24	40.8	78.3	1405	1	100.0	60
01/15/19	7:00 p	38.2	39.1	38.2	78	31.9	0.0	NE	0.00	4.0	NE	38.2	37.9	37.9	30.192	0.00	0.00	1.117	0.000	80.8	24	40.6	78.1	1405	1	100.0	60
01/15/19	8:00 p	37.4	38.2	37.4	82	32.4	0.0	---	0.00	0.0	---	37.4	37.1	37.1	30.191	0.00	0.00	1.150	0.000	82.9	23	41.3	80.1	1405	1	100.0	60
01/15/19	9:00 p	36.5	37.4	36.5	83	31.8	0.0	NE	0.00	4.0	NE	36.5	36.3	36.3	30.187	0.00	0.00	1.188	0.000	82.5	24	42.1	79.9	1405	1	100.0	60
01/15/19	10:00 p	34.0	36.5	34.0	86	30.3	0.0	ESE	0.00	5.0	NE	34.0	33.7	33.7	30.188	0.00	0.00	1.292	0.000	82.6	24	42.1	79.9	1405	1	100.0	60
01/15/19	11:00 p	32.1	34.0	32.1	88	28.9	0.0	ESE	0.00	4.0	ESE	32.1	32.0	32.0	30.189	0.00	0.00	1.371	0.000	81.9	23	40.5	79.2	1405	1	100.0	60
WEDNESDAY		Temp	Hi	Low	Out	Dew	Wind	Wind	Wind	Hi	Hi	Wind	Heat	THW			Rain	Heat	Cool	In 	In	In 	In 	Wind	Wind	ISS 	Arc.
Date		Time	Out	Temp	Temp	Hum	Pt.	Speed	Dir	Run	Speed	Dir	Chill	Index	Index	Bar  	Rain	Rate	D-D 	D-D 	Temp	Hum	Dew	Heat	Samp	Tx 	Recept	Int.
01/16/19	1:00 a	29.6	30.6	29.6	91	27.3	0.0	ESE	0.00	5.0	ESE	29.6	29.4	29.4	30.156	0.00	0.00	1.475	0.000	79.4	24	39.4	76.9	1402	1	100.0	60
01/16/19	2:00 a	29.6	29.6	29.5	93	27.8	4.0	SE	4.00	5.0	SE	25.3	29.5	25.2	30.165	0.00	0.00	1.475	0.000	78.5	24	38.7	76.4	1405	1	100.0	60
01/16/19	3:00 a	29.7	29.7	29.6	93	27.9	4.0	SW	4.00	6.0	SW	25.4	29.6	25.3	30.167	0.00	0.00	1.471	0.000	78.1	24	38.4	76.2	1405	1	100.0	60
01/16/19	4:00 a	29.8	29.8	29.7	94	28.3	4.0	SSW	4.00	6.0	SSW	25.5	29.7	25.4	30.154	0.00	0.00	1.467	0.000	78.4	24	38.6	76.3	1405	1	100.0	60
01/16/19	5:00 a	30.1	30.1	29.8	95	28.8	4.0	SW	4.00	10.0	SW	25.9	30.0	25.8	30.136	0.00	0.00	1.454	0.000	77.7	24	38.0	76.0	1405	1	100.0	60
01/16/19	6:00 a	30.2	30.2	30.1	95	28.9	4.0	SW	4.00	10.0	SW	26.0	30.1	25.9	30.145	0.00	0.00	1.450	0.000	78.1	24	38.4	76.2	1405	1	100.0	60
01/16/19	7:00 a	30.1	30.2	30.1	95	28.8	4.0	SW	4.00	10.0	SW	25.9	30.0	25.8	30.156	0.00	0.00	1.454	0.000	77.8	23	37.0	76.0	1405	1	100.0	60
01/16/19	8:00 a	30.7	30.7	30.0	96	29.7	5.0	SW	5.00	12.0	WSW	25.5	30.6	25.4	30.156	0.00	0.00	1.429	0.000	78.5	24	38.7	76.4	1405	1	100.0	60
01/16/19	9:00 a	32.8	32.8	30.7	97	32.0	6.0	SW	6.00	13.0	SW	27.2	32.7	27.1	30.160	0.00	0.00	1.342	0.000	79.1	23	38.1	76.5	1405	1	100.0	60
01/16/19	10:00 a	36.4	36.4	32.8	93	34.6	6.0	SW	6.00	16.0	SW	31.5	36.4	31.5	30.177	0.00	0.00	1.192	0.000	80.2	23	39.0	77.5	1404	1	100.0	60
01/16/19	11:00 a	41.6	41.6	36.4	81	36.2	7.0	SW	7.00	19.0	SW	37.0	41.3	36.7	30.158	0.00	0.00	0.975	0.000	82.1	23	40.6	79.4	1405	1	100.0	60
01/16/19	12:00 p	46.0	46.0	41.6	70	36.8	7.0	W	7.00	18.0	WSW	42.4	45.5	41.9	30.137	0.00	0.00	0.792	0.000	82.5	23	41.0	79.8	1405	1	100.0	60
01/16/19	1:00 p	48.3	48.3	46.0	67	37.8	6.0	W	6.00	16.0	WSW	45.7	47.7	45.1	30.103	0.00	0.00	0.696	0.000	82.6	23	41.0	79.8	1405	1	100.0	60
01/16/19	2:00 p	49.7	49.7	48.3	64	38.0	10.0	NW	10.00	17.0	WNW	44.9	49.1	44.3	30.116	0.00	0.00	0.637	0.000	82.9	24	42.4	80.2	1405	1	100.0	60
01/16/19	3:00 p	48.3	49.7	48.3	66	37.5	10.0	NE	10.00	18.0	NE	43.3	47.7	42.7	30.123	0.00	0.00	0.696	0.000	83.8	23	42.0	81.1	1405	1	100.0	60
01/16/19	4:00 p	45.0	48.3	45.0	70	35.8	10.0	NE	10.00	19.0	ENE	39.5	44.5	39.0	30.144	0.00	0.00	0.833	0.000	83.3	23	41.6	80.6	1405	1	100.0	60
01/16/19	5:00 p	42.9	45.0	42.9	69	33.4	7.0	NE	7.00	14.0	ENE	38.7	42.3	38.1	30.165	0.00	0.00	0.921	0.000	82.6	24	42.1	79.9	1405	1	100.0	60
01/16/19	6:00 p	40.9	42.9	40.9	76	33.9	6.0	NE	6.00	15.0	NE	36.8	40.5	36.4	30.190	0.00	0.00	1.004	0.000	81.4	24	41.1	78.7	1405	1	100.0	60
01/16/19	7:00 p	40.3	41.0	40.3	78	34.0	7.0	NE	7.00	15.0	NE	35.5	39.9	35.1	30.218	0.00	0.00	1.029	0.000	81.5	24	41.2	78.8	1405	1	100.0	60
01/16/19	8:00 p	39.9	40.3	39.9	78	33.6	7.0	NE	7.00	16.0	ENE	35.0	39.5	34.6	30.226	0.00	0.00	1.046	0.000	82.7	24	42.2	80.0	1405	1	100.0	60
01/16/19	9:00 p	39.6	39.9	39.6	79	33.6	6.0	ENE	6.00	13.0	E	35.3	39.3	35.0	30.238	0.00	0.00	1.058	0.000	82.8	23	41.2	80.0	1404	1	100.0	60
01/16/19	10:00 p	38.8	39.6	38.8	80	33.2	5.0	ENE	5.00	13.0	ENE	35.1	38.5	34.8	30.263	0.00	0.00	1.092	0.000	82.4	24	42.0	79.8	1405	1	100.0	60
01/16/19	11:00 p	36.6	38.8	36.6	85	32.5	0.0	ENE	0.00	7.0	ENE	36.6	36.4	36.4	30.272	0.00	0.00	1.183	0.000	82.4	24	42.0	79.8	1405	1	100.0	60
THURSDAY			Temp	Hi	Low	Out	Dew	Wind	Wind	Wind	Hi	Hi	Wind	Heat	THW			Rain	Heat	Cool	In 	In	In 	In 	Wind	Wind	ISS 	Arc.
Date		Time	Out	Temp	Temp	Hum	Pt.	Speed	Dir	Run	Speed	Dir	Chill	Index	Index	Bar  	Rain	Rate	D-D 	D-D 	Temp	Hum	Dew	Heat	Samp	Tx 	Recept	Int.
01/17/19	1:00 a	37.3	37.3	36.4	86	33.5	5.0	NE	5.00	14.0	NE	33.3	37.1	33.1	30.282	0.00	0.00	1.154	0.000	79.2	24	39.3	76.7	1404	1	100.0	60
01/17/19	2:00 a	38.3	38.4	37.3	80	32.7	5.0	NE	5.00	11.0	NE	34.5	38.0	34.2	30.293	0.00	0.00	1.113	0.000	78.6	24	38.8	76.4	1405	1	100.0	60
01/17/19	3:00 a	36.4	38.3	36.4	81	31.1	0.0	ENE	0.00	7.0	ENE	36.4	36.1	36.1	30.300	0.00	0.00	1.192	0.000	78.8	24	38.9	76.5	1405	1	100.0	60
01/17/19	4:00 a	35.1	36.4	35.0	88	31.9	0.0	ENE	0.00	4.0	ENE	35.1	35.0	35.0	30.300	0.00	0.00	1.246	0.000	78.6	24	38.8	76.4	1405	1	100.0	60
01/17/19	5:00 a	35.5	35.5	35.0	89	32.6	0.0	NE	0.00	10.0	NE	35.5	35.4	35.4	30.302	0.00	0.00	1.229	0.000	78.1	24	38.4	76.2	1405	1	100.0	60
01/17/19	6:00 a	39.5	39.5	35.5	77	32.9	6.0	NE	6.00	15.0	NNE	35.2	39.1	34.8	30.308	0.00	0.00	1.063	0.000	78.3	24	38.5	76.3	1404	1	100.0	60
01/17/19	7:00 a	39.8	39.9	39.5	71	31.2	7.0	ENE	7.00	18.0	NNE	34.9	39.2	34.3	30.324	0.00	0.00	1.050	0.000	79.6	24	39.6	77.1	1406	1	100.0	60
01/17/19	8:00 a	40.1	40.1	39.8	70	31.1	7.0	NE	7.00	17.0	ENE	35.2	39.5	34.6	30.335	0.00	0.00	1.038	0.000	79.5	24	39.5	77.0	1404	1	100.0	60
01/17/19	9:00 a	41.2	41.2	40.1	69	31.8	7.0	ENE	7.00	17.0	ENE	36.5	40.6	35.9	30.332	0.00	0.00	0.992	0.000	79.8	23	38.7	77.1	1405	1	100.0	60
01/17/19	10:00 a	42.7	42.7	41.2	68	32.9	11.0	ENE	11.00	19.0	ENE	36.3	42.1	35.7	30.344	0.00	0.00	0.929	0.000	80.2	24	40.1	77.6	1405	1	100.0	60
01/17/19	11:00 a	43.7	43.7	42.7	66	33.1	7.0	ENE	7.00	16.0	NE	39.6	43.0	38.9	30.347	0.00	0.00	0.887	0.000	80.2	24	40.1	77.6	1405	1	100.0	60
01/17/19	12:00 p	44.4	44.5	43.7	66	33.7	6.0	ENE	6.00	15.0	NNE	41.0	43.7	40.3	30.303	0.00	0.00	0.858	0.000	80.7	24	40.5	78.0	1405	1	100.0	60
01/17/19	1:00 p	44.7	44.8	44.4	64	33.3	7.0	ENE	7.00	15.0	ENE	40.8	44.0	40.1	30.266	0.00	0.00	0.846	0.000	81.0	24	40.8	78.3	1405	1	100.0	60
01/17/19	2:00 p	44.8	44.8	44.5	63	33.0	7.0	ENE	7.00	15.0	ENE	41.0	44.1	40.3	30.257	0.00	0.00	0.842	0.000	81.3	24	41.0	78.6	1405	1	100.0	60
01/17/19	3:00 p	45.0	45.2	44.8	61	32.3	6.0	ENE	6.00	14.0	ENE	41.7	44.2	40.9	30.245	0.00	0.00	0.833	0.000	81.9	24	41.6	79.3	1405	1	100.0	60
01/17/19	4:00 p	45.4	45.4	45.0	64	33.9	5.0	SE	5.00	13.0	S	42.8	44.7	42.1	30.231	0.00	0.00	0.817	0.000	81.4	24	41.1	78.7	1405	1	100.0	60
01/17/19	5:00 p	44.7	45.7	44.7	64	33.3	5.0	SSE	5.00	11.0	SSE	42.0	44.0	41.3	30.222	0.00	0.00	0.846	0.000	81.2	24	41.0	78.5	1404	1	100.0	60
01/17/19	6:00 p	42.9	44.7	42.9	70	33.8	4.0	ESE	4.00	7.0	ESE	40.7	42.3	40.1	30.218	0.00	0.00	0.921	0.000	80.7	25	41.6	78.1	1405	1	100.0	60
01/17/19	7:00 p	42.4	42.9	42.4	74	34.7	4.0	SSE	4.00	7.0	SSE	40.1	42.0	39.7	30.202	0.00	0.00	0.942	0.000	81.0	25	41.9	78.4	1405	1	100.0	60
01/17/19	8:00 p	42.3	42.4	42.2	77	35.6	4.0	SSE	4.00	10.0	SSE	40.0	41.9	39.6	30.178	0.00	0.00	0.946	0.000	81.3	24	41.0	78.6	1405	1	100.0	60
01/17/19	9:00 p	42.3	42.3	42.2	79	36.3	4.0	S	4.00	10.0	SSE	40.0	42.0	39.7	30.180	0.00	0.00	0.946	0.000	80.6	24	40.5	77.9	1405	1	100.0	60
01/17/19	10:00 p	42.4	42.4	42.2	80	36.7	4.0	S	4.00	10.0	SSE	40.1	42.1	39.8	30.155	0.00	0.00	0.942	0.000	80.2	25	41.2	77.7	1405	1	100.0	60
01/17/19	11:00 p	42.5	42.5	42.4	81	37.1	0.0	S	0.00	7.0	S	42.5	42.2	42.2	30.155	0.00	0.00	0.938	0.000	80.4	25	41.3	77.9	1405	1	100.0	60
FRIDAY			Temp	Hi	Low	Out	Dew	Wind	Wind	Wind	Hi	Hi	Wind	Heat	THW			Rain	Heat	Cool	In 	In	In 	In 	Wind	Wind	ISS 	Arc.
Date		Time	Out	Temp	Temp	Hum	Pt.	Speed	Dir	Run	Speed	Dir	Chill	Index	Index	Bar  	Rain	Rate	D-D 	D-D 	Temp	Hum	Dew	Heat	Samp	Tx 	Recept	Int.
01/18/19	1:00 a	42.2	42.4	42.2	83	37.4	0.0	---	0.00	0.0	---	42.2	42.0	42.0	30.114	0.00	0.00	0.950	0.000	79.1	25	40.2	76.8	1404	1	100.0	60
01/18/19	2:00 a	41.8	42.2	41.8	85	37.6	0.0	S	0.00	7.0	S	41.8	41.6	41.6	30.100	0.00	0.00	0.967	0.000	78.8	25	40.0	76.6	1405	1	100.0	60
01/18/19	3:00 a	41.3	41.8	41.3	85	37.1	4.0	S	4.00	7.0	S	38.8	41.1	38.6	30.091	0.00	0.00	0.988	0.000	78.6	26	40.8	76.6	1404	1	100.0	60
01/18/19	4:00 a	40.6	41.3	40.6	86	36.7	4.0	S	4.00	9.0	SSE	38.0	40.4	37.8	30.061	0.00	0.00	1.017	0.000	79.0	25	40.2	76.7	1405	1	100.0	60
01/18/19	5:00 a	40.1	40.6	39.9	91	37.7	5.0	SW	5.00	11.0	SW	36.6	40.0	36.5	30.053	0.00	0.00	1.038	0.000	78.8	25	40.0	76.6	1405	1	100.0	60
01/18/19	6:00 a	41.1	41.1	40.1	92	39.0	5.0	SW	5.00	11.0	SSW	37.7	41.1	37.7	30.055	0.00	0.00	0.996	0.000	78.6	26	40.8	76.6	1405	1	100.0	60
01/18/19	7:00 a	41.5	41.5	41.1	92	39.3	5.0	SW	5.00	11.0	SW	38.2	41.5	38.2	30.058	0.00	0.00	0.979	0.000	78.7	26	40.9	76.6	1405	1	100.0	60
01/18/19	8:00 a	41.5	41.5	41.5	92	39.3	4.0	SW	4.00	11.0	SSW	39.1	41.5	39.1	30.070	0.00	0.00	0.979	0.000	79.0	26	41.2	76.8	1405	1	100.0	60
01/18/19	9:00 a	42.8	42.9	41.5	94	41.2	5.0	SW	5.00	12.0	W	39.8	42.9	39.9	30.078	0.00	0.00	0.925	0.000	79.7	26	41.8	77.4	1405	1	100.0	60
01/18/19	10:00 a	45.8	45.8	42.9	87	42.2	6.0	W	6.00	16.0	WSW	42.7	45.8	42.7	30.086	0.00	0.00	0.800	0.000	80.9	26	42.8	78.4	1405	1	100.0	60
01/18/19	11:00 a	48.5	48.5	45.8	81	42.9	6.0	W	6.00	16.0	NW	45.9	48.4	45.8	30.096	0.00	0.00	0.688	0.000	81.5	26	43.3	79.1	1405	1	100.0	60
01/18/19	12:00 p	49.3	49.3	48.5	79	43.1	6.0	NNW	6.00	15.0	NNW	46.9	49.2	46.8	30.080	0.00	0.00	0.654	0.000	82.4	25	43.0	79.9	1405	1	100.0	60
01/18/19	1:00 p	50.6	50.6	49.3	76	43.3	7.0	NNW	7.00	14.0	NW	47.9	50.4	47.7	30.058	0.00	0.00	0.600	0.000	82.6	25	43.2	80.0	1405	1	100.0	60
01/18/19	2:00 p	52.0	52.0	50.5	74	44.0	7.0	NNW	7.00	15.0	NNW	49.6	51.6	49.2	30.038	0.00	0.00	0.542	0.000	82.9	25	43.5	80.3	1404	1	100.0	60
01/18/19	3:00 p	52.2	52.2	52.0	72	43.4	7.0	NNW	7.00	14.0	NE	49.8	51.7	49.3	30.057	0.00	0.00	0.533	0.000	83.2	25	43.7	80.6	1405	1	100.0	60
01/18/19	4:00 p	51.4	52.3	51.4	72	42.7	7.0	NNW	7.00	14.0	NNW	48.9	50.9	48.4	30.064	0.00	0.00	0.567	0.000	83.9	25	44.3	81.4	1405	1	100.0	60
01/18/19	5:00 p	49.5	51.4	49.5	76	42.2	6.0	NE	6.00	15.0	NNE	47.1	49.3	46.9	30.068	0.00	0.00	0.646	0.000	83.5	26	45.0	81.1	1405	1	100.0	60
01/18/19	6:00 p	47.6	49.5	47.6	77	40.7	4.0	NE	4.00	6.0	NE	46.1	47.4	45.9	30.101	0.00	0.00	0.725	0.000	82.6	26	44.2	80.2	1405	1	100.0	60
01/18/19	7:00 p	46.2	47.6	46.2	80	40.4	4.0	NE	4.00	7.0	ENE	44.4	46.0	44.2	30.123	0.00	0.00	0.783	0.000	82.1	26	43.8	79.7	1405	1	100.0	60
01/18/19	8:00 p	45.9	46.2	45.8	82	40.7	5.0	ENE	5.00	10.0	ENE	43.4	45.8	43.3	30.135	0.00	0.00	0.796	0.000	81.7	27	44.5	79.4	1405	1	100.0	60
01/18/19	9:00 p	45.7	45.9	45.7	83	40.8	5.0	ENE	5.00	12.0	ENE	43.1	45.6	43.0	30.152	0.00	0.00	0.804	0.000	81.2	27	44.0	78.9	1405	1	100.0	60
01/18/19	10:00 p	45.8	45.8	45.7	83	40.9	4.0	ENE	4.00	13.0	ENE	44.0	45.7	43.9	30.170	0.00	0.00	0.800	0.000	82.9	26	44.5	80.4	1405	1	100.0	60
01/18/19	11:00 p	46.3	46.3	45.8	77	39.5	6.0	ENE	6.00	15.0	E	43.3	46.0	43.0	30.190	0.00	0.00	0.779	0.000	83.0	26	44.6	80.5	1405	1	100.0	60
01/19/19	12:00 a	45.7	46.3	45.7	77	38.9	5.0	NE	5.00	15.0	NE	43.1	45.4	42.8	30.179	0.00	0.00	0.804	0.000	82.4	26	44.1	80.0	1405	1	100.0	60
SATURDAY		Temp	Hi	Low	Out	Dew	Wind	Wind	Wind	Hi	Hi	Wind	Heat	THW			Rain	Heat	Cool	In 	In	In 	In 	Wind	Wind	ISS 	Arc.
Date		Time	Out	Temp	Temp	Hum	Pt.	Speed	Dir	Run	Speed	Dir	Chill	Index	Index	Bar  	Rain	Rate	D-D 	D-D 	Temp	Hum	Dew	Heat	Samp	Tx 	Recept	Int.
01/19/19	1:00 a	44.9	45.7	44.9	80	39.1	6.0	ENE	6.00	14.0	NE	41.6	44.7	41.4	30.169	0.00	0.00	0.837	0.000	80.5	27	43.4	78.2	1403	1	100.0	60
01/19/19	2:00 a	44.3	44.9	44.3	84	39.8	6.0	ENE	6.00	14.0	E	40.9	44.2	40.8	30.173	0.00	0.00	0.863	0.000	79.2	27	42.3	77.1	1405	1	100.0	60
01/19/19	3:00 a	43.8	44.3	43.8	86	39.9	5.0	E	5.00	12.0	ENE	41.0	43.7	40.9	30.175	0.00	0.00	0.883	0.000	79.1	27	42.2	77.0	1405	1	100.0	60
01/19/19	4:00 a	44.0	44.0	43.8	89	41.0	4.0	ENE	4.00	11.0	ENE	41.9	44.1	42.0	30.167	0.00	0.00	0.875	0.000	78.3	28	42.5	76.5	1405	1	100.0	60
01/19/19	5:00 a	44.0	44.1	43.9	88	40.7	6.0	ENE	6.00	12.0	E	40.5	44.0	40.5	30.150	0.00	0.00	0.875	0.000	77.8	28	42.1	76.2	1405	1	100.0	60
01/19/19	6:00 a	43.5	44.0	43.5	87	39.9	5.0	ENE	5.00	12.0	ENE	40.6	43.5	40.6	30.163	0.00	0.00	0.896	0.000	77.6	28	41.9	76.1	1405	1	100.0	60
01/19/19	7:00 a	43.8	43.8	43.4	87	40.2	5.0	ENE	5.00	15.0	ENE	41.0	43.8	41.0	30.157	0.00	0.00	0.883	0.000	78.7	27	41.9	76.7	1405	1	100.0	60
01/19/19	8:00 a	43.9	43.9	43.8	89	40.9	5.0	ENE	5.00	13.0	ENE	41.1	44.0	41.2	30.146	0.00	0.00	0.879	0.000	79.4	27	42.5	77.2	1405	1	100.0	60
01/19/19	9:00 a	45.0	45.0	43.8	89	42.0	5.0	ENE	5.00	14.0	S	42.3	45.1	42.4	30.146	0.00	0.00	0.833	0.000	79.6	27	42.7	77.4	1405	1	100.0	60
01/19/19	10:00 a	47.9	47.9	45.0	86	43.9	5.0	SSE	5.00	16.0	SSE	45.8	47.9	45.8	30.145	0.00	0.00	0.712	0.000	80.2	27	43.2	77.9	1405	1	100.0	60
01/19/19	11:00 a	51.0	51.0	47.9	78	44.4	6.0	SE	6.00	16.0	SSE	48.9	50.8	48.7	30.138	0.00	0.00	0.583	0.000	83.1	27	45.7	80.8	1405	1	100.0	60
01/19/19	12:00 p	53.3	53.3	51.0	74	45.2	7.0	SE	7.00	18.0	SSE	51.2	52.8	50.7	30.110	0.00	0.00	0.488	0.000	83.8	27	46.2	81.6	1404	1	100.0	60
01/19/19	1:00 p	54.4	54.4	53.3	74	46.3	7.0	SE	7.00	21.0	SSE	52.5	53.9	52.0	30.057	0.00	0.00	0.442	0.000	83.9	28	47.3	81.9	1405	1	100.0	60
01/19/19	2:00 p	55.1	55.1	54.4	72	46.2	10.0	SE	10.00	20.0	SSE	51.2	54.4	50.5	30.021	0.00	0.00	0.413	0.000	84.2	28	47.6	82.2	1405	1	100.0	60
01/19/19	3:00 p	54.7	55.1	54.7	74	46.6	11.0	SE	11.00	18.0	S	50.2	54.1	49.6	29.990	0.00	0.00	0.429	0.000	84.1	29	48.4	82.2	1405	1	100.0	60
01/19/19	4:00 p	54.9	55.2	54.8	73	46.4	11.0	SE	11.00	23.0	SSE	50.5	54.3	49.9	29.964	0.00	0.00	0.421	0.000	84.0	28	47.4	82.0	1405	1	100.0	60
01/19/19	5:00 p	53.4	54.9	53.4	78	46.7	11.0	SE	11.00	21.0	SSE	48.7	53.0	48.3	29.919	0.00	0.00	0.483	0.000	83.7	28	47.1	81.6	1405	1	100.0	60
01/19/19	6:00 p	52.5	53.4	52.5	83	47.5	10.0	SE	10.00	22.0	SSE	48.2	52.4	48.1	29.878	0.00	0.00	0.521	0.000	82.0	29	46.6	80.0	1405	1	100.0	60
01/19/19	7:00 p	52.8	52.8	52.5	88	49.3	12.0	SSE	12.00	21.0	SSE	47.5	52.8	47.5	29.842	0.00	0.00	0.508	0.000	81.0	29	45.7	78.9	1405	1	100.0	60
01/19/19	8:00 p	53.5	53.5	52.8	91	50.9	12.0	SSE	12.00	23.0	SSE	48.3	53.6	48.4	29.800	0.00	0.00	0.479	0.000	82.4	30	47.8	80.5	1405	1	100.0	60
01/19/19	9:00 p	54.4	54.4	53.5	95	53.0	11.0	SSE	11.00	18.0	S	49.9	54.6	50.1	29.738	0.00	0.00	0.442	0.000	82.3	30	47.8	80.4	1405	1	100.0	60
01/19/19	10:00 p	55.1	55.1	54.4	96	54.0	11.0	SSE	11.00	17.0	SSE	50.7	55.3	50.9	29.699	0.00	0.00	0.413	0.000	82.3	30	47.8	80.4	1405	1	100.0	60
01/19/19	11:00 p	55.3	55.3	55.0	97	54.5	10.0	SSE	10.00	18.0	SSE	51.5	55.6	51.8	29.676	0.00	0.00	0.404	0.000	82.4	31	48.7	80.6	1405	1	100.0	60
SUNDAY			Temp	Hi	Low	Out	Dew	Wind	Wind	Wind	Hi	Hi	Wind	Heat	THW			Rain	Heat	Cool	In 	In	In 	In 	Wind	Wind	ISS 	Arc.
Date		Time	Out	Temp	Temp	Hum	Pt.	Speed	Dir	Run	Speed	Dir	Chill	Index	Index	Bar  	Rain	Rate	D-D 	D-D 	Temp	Hum	Dew	Heat	Samp	Tx 	Recept	Int.
01/20/19	1:00 a	56.9	56.9	56.3	98	56.3	11.0	S	11.00	19.0	SSE	52.8	57.2	53.1	29.605	0.00	0.00	0.337	0.000	81.5	32	48.8	79.8	1404	1	100.0	60
01/20/19	2:00 a	58.1	58.1	56.9	99	57.8	11.0	S	11.00	21.0	SSE	54.1	58.5	54.5	29.557	0.00	0.00	0.288	0.000	80.7	33	48.9	79.0	1404	1	100.0	60
01/20/19	3:00 a	59.4	59.4	58.1	99	59.1	12.0	S	12.00	23.0	SSE	55.1	59.9	55.6	29.513	0.00	0.00	0.233	0.000	80.2	33	48.5	78.5	1405	1	100.0	60
01/20/19	4:00 a	60.0	60.0	59.4	99	59.7	12.0	S	12.00	22.0	SSE	55.8	60.6	56.4	29.459	0.00	0.00	0.208	0.000	79.9	34	49.0	78.3	1405	1	100.0	60
01/20/19	5:00 a	61.2	61.2	60.0	99	60.9	13.0	S	13.00	24.0	S	56.6	61.9	57.3	29.407	0.08	0.17	0.158	0.000	79.6	35	49.5	78.2	1405	1	100.0	60
01/20/19	6:00 a	61.9	61.9	61.2	100	61.9	13.0	S	13.00	29.0	S	57.5	62.7	58.3	29.363	0.29	4.03	0.129	0.000	79.7	36	50.4	78.4	1405	1	100.0	60
01/20/19	7:00 a	61.5	62.1	61.5	99	61.2	12.0	SSW	12.00	26.0	SW	57.5	62.2	58.2	29.374	0.14	1.60	0.146	0.000	80.0	37	51.4	78.7	1405	1	100.0	60
01/20/19	8:00 a	59.1	61.5	59.1	98	58.5	14.0	SW	14.00	39.0	SW	53.9	59.6	54.4	29.359	0.01	0.10	0.246	0.000	79.9	38	52.0	78.7	1405	1	100.0	60
01/20/19	9:00 a	58.2	59.1	58.2	97	57.4	10.0	SW	10.00	22.0	SW	54.8	58.6	55.2	29.368	0.00	0.00	0.283	0.000	80.0	37	51.4	78.7	1405	1	100.0	60
01/20/19	10:00 a	58.6	58.6	58.0	96	57.5	11.0	SW	11.00	22.0	SW	54.7	59.0	55.1	29.371	0.00	0.00	0.267	0.000	80.6	37	51.9	79.3	1405	1	100.0	60
01/20/19	11:00 a	60.1	60.1	58.6	89	56.8	11.0	WSW	11.00	24.0	WNW	56.4	60.4	56.7	29.370	0.00	0.00	0.204	0.000	81.7	36	52.1	80.5	1405	1	100.0	60
01/20/19	12:00 p	61.9	61.9	60.1	83	56.7	11.0	W	11.00	22.0	SW	58.5	62.1	58.7	29.369	0.00	0.00	0.129	0.000	81.9	36	52.3	80.7	1405	1	100.0	60
01/20/19	1:00 p	56.9	62.2	56.9	75	49.1	15.0	NW	15.00	36.0	NW	51.0	56.4	50.5	29.406	0.00	0.00	0.337	0.000	81.5	35	51.2	80.1	1405	1	100.0	60
01/20/19	2:00 p	47.2	56.9	47.2	80	41.3	17.0	NW	17.00	37.0	NW	39.4	47.0	39.2	29.468	0.00	0.00	0.742	0.000	81.3	34	50.2	79.8	1404	1	100.0	60
01/20/19	3:00 p	45.2	47.3	45.2	63	33.3	18.0	NW	18.00	37.0	NNE	36.9	44.5	36.2	29.526	0.00	0.00	0.825	0.000	82.3	33	50.3	80.8	1405	1	100.0	60
01/20/19	4:00 p	43.1	45.2	43.1	60	30.1	18.0	NNW	18.00	40.0	WNW	34.5	42.3	33.7	29.578	0.00	0.00	0.913	0.000	83.5	31	49.7	81.8	1405	1	100.0	60
01/20/19	5:00 p	41.9	43.2	41.9	56	27.3	17.0	NNW	17.00	32.0	NW	33.4	40.9	32.4	29.639	0.00	0.00	0.962	0.000	83.6	29	48.0	81.6	1405	1	100.0	60
01/20/19	6:00 p	39.1	41.9	39.1	48	21.0	19.0	NW	19.00	40.0	NW	29.6	38.0	28.5	29.706	0.00	0.00	1.079	0.000	82.8	27	45.4	80.5	1405	1	100.0	60
01/20/19	7:00 p	36.4	39.0	36.4	51	20.0	16.0	NNW	16.00	32.0	NNW	26.9	35.4	25.9	29.772	0.00	0.00	1.192	0.000	81.6	27	44.4	79.3	1405	1	100.0	60
01/20/19	8:00 p	34.3	36.4	34.3	54	19.4	14.0	NNW	14.00	29.0	NW	24.9	33.5	24.1	29.814	0.00	0.00	1.279	0.000	81.3	27	44.1	79.0	1405	1	100.0	60
01/20/19	9:00 p	32.6	34.3	32.6	56	18.6	16.0	NW	16.00	31.0	NNW	22.0	31.8	21.2	29.856	0.00	0.00	1.350	0.000	81.4	27	44.2	79.1	1405	1	100.0	60
01/20/19	10:00 p	31.3	32.6	31.3	56	17.4	15.0	NW	15.00	31.0	NW	20.7	30.5	19.9	29.889	0.00	0.00	1.404	0.000	81.6	26	43.4	79.2	1405	1	100.0	60
01/20/19	11:00 p	30.2	31.3	30.2	53	15.1	15.0	NW	15.00	27.0	WNW	19.3	29.4	18.5	29.942	0.00	0.00	1.450	0.000	80.8	25	41.7	78.2	1404	1	100.0	60
MONDAY			Temp	Hi	Low	Out	Dew	Wind	Wind	Wind	Hi	Hi	Wind	Heat	THW			Rain	Heat	Cool	In 	In	In 	In 	Wind	Wind	ISS 	Arc.
Date		Time	Out	Temp	Temp	Hum	Pt.	Speed	Dir	Run	Speed	Dir	Chill	Index	Index	Bar  	Rain	Rate	D-D 	D-D 	Temp	Hum	Dew	Heat	Samp	Tx 	Recept	Int.
01/21/19	1:00 a	28.1	29.2	28.1	49	11.4	15.0	NW	15.00	31.0	NW	16.6	27.3	15.8	30.010	0.00	0.00	1.537	0.000	81.3	24	41.0	78.6	1403	1	100.0	60
01/21/19	2:00 a	26.5	28.1	26.5	50	10.3	14.0	NNW	14.00	26.0	NW	15.0	25.8	14.3	30.033	0.00	0.00	1.604	0.000	81.5	24	41.2	78.8	1405	1	100.0	60
01/21/19	3:00 a	24.7	26.5	24.7	52	9.5	13.0	NNW	13.00	24.0	N	13.1	24.0	12.4	30.069	0.00	0.00	1.679	0.000	81.5	23	40.1	78.7	1405	1	100.0	60
01/21/19	4:00 a	23.7	24.7	23.7	56	10.3	13.0	NNW	13.00	24.0	N	11.9	23.1	11.3	30.095	0.00	0.00	1.721	0.000	80.8	23	39.5	78.0	1405	1	100.0	60
01/21/19	5:00 a	22.9	23.8	22.9	58	10.3	14.0	NW	14.00	27.0	NW	10.4	22.4	9.9	30.126	0.00	0.00	1.754	0.000	80.6	23	39.4	77.8	1405	1	100.0	60
01/21/19	6:00 a	22.1	22.9	22.1	60	10.3	12.0	NW	12.00	24.0	WNW	10.3	21.6	9.8	30.169	0.00	0.00	1.787	0.000	80.4	22	38.1	77.6	1405	1	100.0	60
01/21/19	7:00 a	21.1	22.1	21.1	55	7.4	13.0	WNW	13.00	27.0	NW	8.6	20.6	8.1	30.215	0.00	0.00	1.829	0.000	81.8	22	39.2	78.9	1404	1	100.0	60
01/21/19	8:00 a	20.7	21.1	20.7	48	4.1	13.0	WNW	13.00	28.0	NW	8.1	20.1	7.5	30.242	0.00	0.00	1.846	0.000	81.9	21	38.1	78.9	1405	1	100.0	60
01/21/19	9:00 a	21.2	21.2	20.7	45	3.1	13.0	WNW	13.00	28.0	WNW	8.7	20.6	8.1	30.283	0.00	0.00	1.825	0.000	82.0	21	38.2	79.0	1405	1	100.0	60
01/21/19	10:00 a	21.8	22.0	21.2	43	2.7	14.0	WNW	14.00	26.0	NNW	9.0	21.1	8.3	30.316	0.00	0.00	1.800	0.000	82.4	20	37.3	79.3	1405	1	100.0	60
01/21/19	11:00 a	23.0	23.0	21.8	42	3.3	14.0	WNW	14.00	26.0	NNW	10.5	22.2	9.7	30.331	0.00	0.00	1.750	0.000	82.3	21	38.4	79.3	1405	1	100.0	60
01/21/19	12:00 p	23.9	23.9	23.0	37	1.4	15.0	NW	15.00	30.0	WSW	11.2	23.0	10.3	30.330	0.00	0.00	1.713	0.000	81.7	21	38.0	78.7	1405	1	100.0	60
01/21/19	1:00 p	25.1	25.3	23.9	36	1.8	14.0	WNW	14.00	26.0	WNW	13.2	24.2	12.3	30.328	0.00	0.00	1.662	0.000	81.5	20	36.5	78.4	1405	1	100.0	60
01/21/19	2:00 p	26.1	26.1	25.1	37	3.3	15.0	NW	15.00	28.0	NNW	14.0	25.2	13.1	30.325	0.00	0.00	1.621	0.000	81.5	20	36.5	78.4	1405	1	100.0	60
01/21/19	3:00 p	27.1	27.2	26.1	33	1.8	15.0	NW	15.00	31.0	NNW	15.3	26.1	14.3	30.346	0.00	0.00	1.579	0.000	82.4	19	36.0	79.2	1405	1	100.0	60
01/21/19	4:00 p	27.3	27.5	27.1	33	1.9	13.0	WNW	13.00	25.0	NW	16.4	26.3	15.4	30.383	0.00	0.00	1.571	0.000	82.4	20	37.3	79.3	1404	1	100.0	60
01/21/19	5:00 p	26.9	27.3	26.9	33	1.6	13.0	WNW	13.00	24.0	WNW	15.9	25.9	14.9	30.406	0.00	0.00	1.588	0.000	80.7	20	35.9	77.6	1405	1	100.0	60
01/21/19	6:00 p	26.5	26.9	26.5	33	1.2	11.0	NW	11.00	23.0	W	16.4	25.5	15.4	30.430	0.00	0.00	1.604	0.000	80.3	20	35.6	77.3	1405	1	100.0	60
01/21/19	7:00 p	26.2	26.5	26.2	35	2.2	7.0	WNW	7.00	19.0	WSW	18.5	25.3	17.6	30.466	0.00	0.00	1.617	0.000	80.1	20	35.4	77.1	1405	1	100.0	60
01/21/19	8:00 p	25.2	26.2	25.2	40	4.2	6.0	WNW	6.00	14.0	WSW	18.1	24.4	17.3	30.487	0.00	0.00	1.658	0.000	81.0	20	36.1	77.9	1405	1	100.0	60
01/21/19	9:00 p	24.4	25.3	24.4	45	6.1	5.0	WNW	5.00	12.0	WSW	18.1	23.7	17.4	30.513	0.00	0.00	1.692	0.000	80.9	20	36.1	77.8	1405	1	100.0	60
01/21/19	10:00 p	24.9	25.1	24.2	42	5.0	10.0	NW	10.00	21.0	NNW	14.9	24.1	14.1	30.533	0.00	0.00	1.671	0.000	80.2	20	35.5	77.2	1405	1	100.0	60
01/21/19	11:00 p	24.1	24.9	24.1	43	4.8	10.0	NNW	10.00	21.0	NW	13.9	23.4	13.2	30.554	0.00	0.00	1.704	0.000	80.7	19	34.6	77.5	1405	1	100.0	60
01/22/19	12:00 a	23.4	24.1	23.3	48	6.6	11.0	NNW	11.00	19.0	NW	12.5	22.7	11.8	30.558	0.00	0.00	1.733	0.000	79.2	20	34.6	76.3	1405	1	100.0	60
TUESDAY			Temp	Hi	Low	Out	Dew	Wind	Wind	Wind	Hi	Hi	Wind	Heat	THW			Rain	Heat	Cool	In 	In	In 	In 	Wind	Wind	ISS 	Arc.
Date		Time	Out	Temp	Temp	Hum	Pt.	Speed	Dir	Run	Speed	Dir	Chill	Index	Index	Bar  	Rain	Rate	D-D 	D-D 	Temp	Hum	Dew	Heat	Samp	Tx 	Recept	Int.
01/22/19	1:00 a	23.4	23.6	23.4	48	6.6	10.0	NNW	10.00	18.0	NW	13.1	22.7	12.4	30.585	0.00	0.00	1.733	0.000	78.5	20	34.1	76.0	1403	1	100.0	60
01/22/19	2:00 a	22.3	23.4	22.3	50	6.4	11.0	NNW	11.00	19.0	NNW	11.1	21.7	10.5	30.603	0.00	0.00	1.779	0.000	78.6	19	32.9	75.9	1405	1	100.0	60
01/22/19	3:00 a	21.3	22.3	21.3	53	6.8	10.0	NNW	10.00	19.0	NNW	10.5	20.8	10.0	30.618	0.00	0.00	1.821	0.000	78.2	19	32.5	75.8	1405	1	100.0	60
01/22/19	4:00 a	20.3	21.3	20.3	56	7.1	10.0	NW	10.00	17.0	WNW	9.2	19.8	8.7	30.642	0.00	0.00	1.863	0.000	78.6	19	32.9	75.9	1405	1	100.0	60
01/22/19	5:00 a	19.9	20.3	19.9	58	7.5	11.0	NNW	11.00	19.0	N	8.1	19.5	7.7	30.631	0.00	0.00	1.879	0.000	78.0	19	32.4	75.8	1405	1	100.0	60
01/22/19	6:00 a	19.3	19.9	19.3	62	8.4	10.0	NNW	10.00	19.0	NNW	8.0	18.9	7.6	30.637	0.00	0.00	1.904	0.000	78.6	19	32.9	75.9	1405	1	100.0	60
01/22/19	7:00 a	19.5	19.6	19.1	68	10.6	7.0	NNW	7.00	16.0	NW	10.4	19.2	10.1	30.661	0.00	0.00	1.896	0.000	81.2	18	33.6	77.9	1405	1	100.0	60
01/22/19	8:00 a	19.5	19.6	19.3	67	10.3	7.0	NNW	7.00	16.0	NW	10.4	19.1	10.0	30.685	0.00	0.00	1.896	0.000	81.4	18	33.8	78.1	1404	1	100.0	60
01/22/19	9:00 a	21.2	21.2	19.5	68	12.3	10.0	NNW	10.00	18.0	NW	10.3	20.8	9.9	30.720	0.00	0.00	1.825	0.000	79.9	18	32.6	76.7	1405	1	100.0	60
01/22/19	10:00 a	23.0	23.0	21.2	68	14.0	10.0	NNW	10.00	17.0	N	12.6	22.6	12.2	30.733	0.00	0.00	1.750	0.000	81.4	18	33.8	78.1	1405	1	100.0	60
01/22/19	11:00 a	24.9	24.9	23.0	67	15.5	10.0	NNW	10.00	18.0	NE	14.9	24.4	14.4	30.728	0.00	0.00	1.671	0.000	82.9	18	35.0	79.7	1405	1	100.0	60
01/22/19	12:00 p	26.5	26.5	24.9	66	16.7	6.0	NNW	6.00	16.0	NNW	19.7	26.0	19.2	30.709	0.00	0.00	1.604	0.000	83.2	18	35.3	80.1	1405	1	100.0	60
01/22/19	1:00 p	28.5	28.5	26.5	65	18.2	6.0	ENE	6.00	15.0	NNW	22.1	27.9	21.5	30.685	0.00	0.00	1.521	0.000	82.3	18	34.5	79.0	1405	1	100.0	60
01/22/19	2:00 p	30.2	30.2	28.4	63	19.1	6.0	NNW	6.00	15.0	ENE	24.1	29.6	23.5	30.671	0.00	0.00	1.450	0.000	82.9	18	35.0	79.7	1405	1	100.0	60
01/22/19	3:00 p	31.5	31.6	30.1	61	19.6	5.0	ENE	5.00	14.0	NE	26.5	30.8	25.8	30.658	0.00	0.00	1.396	0.000	84.0	18	35.9	80.9	1405	1	100.0	60
01/22/19	4:00 p	33.0	33.0	31.5	59	20.2	5.0	ENE	5.00	12.0	E	28.3	32.3	27.6	30.639	0.00	0.00	1.333	0.000	83.1	19	36.6	80.0	1405	1	100.0	60
01/22/19	5:00 p	33.5	33.5	33.0	59	20.7	4.0	SE	4.00	10.0	S	29.8	32.8	29.1	30.632	0.00	0.00	1.313	0.000	83.0	19	36.5	79.9	1404	1	100.0	60
01/22/19	6:00 p	32.6	33.5	32.6	62	21.0	0.0	SE	0.00	6.0	SE	32.6	31.9	31.9	30.642	0.00	0.00	1.350	0.000	81.4	19	35.2	78.2	1405	1	100.0	60
01/22/19	7:00 p	31.1	32.6	31.1	75	24.1	6.0	SSE	6.00	15.0	SSE	25.2	30.7	24.8	30.640	0.00	0.00	1.412	0.000	81.2	20	36.3	78.1	1405	1	100.0	60
01/22/19	8:00 p	29.7	31.1	29.7	78	23.7	7.0	SSE	7.00	15.0	SSE	22.7	29.4	22.4	30.635	0.00	0.00	1.471	0.000	81.8	20	36.8	78.7	1405	1	100.0	60
01/22/19	9:00 p	28.8	29.7	28.7	81	23.7	6.0	SSE	6.00	12.0	SE	22.4	28.5	22.1	30.627	0.00	0.00	1.508	0.000	80.9	21	37.3	77.9	1405	1	100.0	60
01/22/19	10:00 p	28.3	28.8	28.3	83	23.8	5.0	SSE	5.00	14.0	SSE	22.7	28.1	22.5	30.615	0.00	0.00	1.529	0.000	81.1	20	36.2	78.0	1405	1	100.0	60
01/22/19	11:00 p	27.9	28.3	27.9	83	23.4	4.0	S	4.00	10.0	SSE	23.3	27.7	23.1	30.610	0.00	0.00	1.546	0.000	80.4	20	35.6	77.4	1405	1	100.0	60
01/23/19	12:00 a	27.5	27.9	27.5	84	23.3	0.0	S	0.00	6.0	S	27.5	27.3	27.3	30.586	0.00	0.00	1.563	0.000	79.2	21	35.9	76.4	1405	1	100.0	60
WEDNESDAY		Temp	Hi	Low	Out	Dew	Wind	Wind	Wind	Hi	Hi	Wind	Heat	THW			Rain	Heat	Cool	In 	In	In 	In 	Wind	Wind	ISS 	Arc.
Date		Time	Out	Temp	Temp	Hum	Pt.	Speed	Dir	Run	Speed	Dir	Chill	Index	Index	Bar  	Rain	Rate	D-D 	D-D 	Temp	Hum	Dew	Heat	Samp	Tx 	Recept	Int.
01/23/19	1:00 a	27.0	27.5	27.0	85	23.1	4.0	S	4.00	6.0	S	22.3	26.8	22.1	30.573	0.00	0.00	1.583	0.000	78.5	21	35.3	76.1	1403	1	100.0	60
01/23/19	2:00 a	27.8	27.8	27.0	87	24.4	4.0	S	4.00	11.0	SSE	23.2	27.6	23.0	30.544	0.00	0.00	1.550	0.000	78.8	21	35.5	76.2	1406	1	100.0	60
01/23/19	3:00 a	28.1	28.2	27.8	87	24.7	4.0	S	4.00	10.0	SSE	23.6	27.9	23.4	30.529	0.00	0.00	1.537	0.000	78.0	21	34.9	76.0	1404	1	100.0	60
01/23/19	4:00 a	28.3	28.3	28.0	88	25.2	0.0	S	0.00	5.0	S	28.3	28.1	28.1	30.507	0.00	0.00	1.529	0.000	78.7	20	34.2	76.0	1405	1	100.0	60
01/23/19	5:00 a	29.9	29.9	28.3	88	26.8	0.0	S	0.00	10.0	SSE	29.9	29.7	29.7	30.472	0.00	0.00	1.463	0.000	78.4	20	34.0	76.0	1405	1	100.0	60
01/23/19	6:00 a	30.6	30.6	29.9	87	27.2	4.0	S	4.00	10.0	SSE	26.5	30.4	26.3	30.446	0.00	0.00	1.433	0.000	79.0	21	35.7	76.2	1405	1	100.0	60
01/23/19	7:00 a	31.0	31.0	30.6	88	27.9	4.0	S	4.00	10.0	SSE	26.9	30.8	26.7	30.430	0.00	0.00	1.417	0.000	78.8	20	34.3	76.1	1405	1	100.0	60
01/23/19	8:00 a	32.5	32.5	30.9	91	30.2	5.0	S	5.00	11.0	SSE	27.7	32.4	27.6	30.404	0.00	0.00	1.354	0.000	79.5	21	36.1	76.7	1405	1	100.0	60
01/23/19	9:00 a	37.1	37.1	32.6	95	35.8	6.0	S	6.00	17.0	SSE	32.3	37.1	32.3	30.375	0.00	0.00	1.163	0.000	79.8	21	36.4	76.9	1405	1	100.0	60
01/23/19	10:00 a	47.1	47.1	37.1	89	44.0	14.0	S	14.00	26.0	SSE	40.2	47.3	40.4	30.346	0.00	0.00	0.746	0.000	80.6	22	38.2	77.7	1405	1	100.0	60

			Temp	Hi	Low	Out	Dew	Wind	Wind	Wind	Hi	Hi	Wind	Heat	THW			Rain	Heat	Cool	In 	In	In 	In 	Wind	Wind	ISS 	Arc.
Date		Time	Out	Temp	Temp	Hum	Pt.	Speed	Dir	Run	Speed	Dir	Chill	Index	Index	Bar  	Rain	Rate	D-D 	D-D 	Temp	Hum	Dew	Heat	Samp	Tx 	Recept	Int.
-----------------------------------------------------------------------------------------------------------------------------------------------------------------------------------